EW658 / D-AGWZ 7700 Squawk Report (18th of May, 2019)

Aircraft A319 Reg No. D-AGWZ Age 5 years old
Model A319 Jet engines 2 First flight 27-01-14
Registered 28-10-17 Rollout 01-14 Delivered 21-02-14
Construction No. 5978 Line No. N/A Series 132
ADSHEX 3C5EFA Airline name Eurowings Owner N/A
Airfield based Dusseldorf~Nordrhein-Westfalen~D First tracked 2017-07-13 06:00:00

Flight history for D-AGWZ

Route Flight No Date Playback
Dresden (DRS) - Koln Bonn (CGN) EW29 2019-06-26 20:02:00
Koln Bonn (CGN) - Dresden (DRS) EW28 2019-06-26 18:24:00
Zurich (ZRH) - Koln Bonn (CGN) EW769 2019-06-26 16:07:00
Koln Bonn (CGN) - Zurich (ZRH) EW768 2019-06-26 14:26:00
Zurich (ZRH) - Koln Bonn (CGN) EW767 2019-06-26 12:11:00
Koln Bonn (CGN) - Zurich (ZRH) EW766 2019-06-26 10:25:00
Zurich (ZRH) - Koln Bonn (CGN) EW765 2019-06-26 08:18:00
Koln Bonn (CGN) - Zurich (ZRH) EW764 2019-06-26 06:13:00
Stansted (STN) - Koln Bonn (CGN) EW357 2019-06-25 20:17:00
Koln Bonn (CGN) - Stansted (STN) EW356 2019-06-25 19:22:00
Fiumicino (FCO) - Koln Bonn (CGN) EW887 2019-06-25 15:50:00
Koln Bonn (CGN) - Fiumicino (FCO) EW886 2019-06-25 12:58:00
Heathrow (LHR) - Koln Bonn (CGN) EW461 2019-06-25 09:35:00
Koln Bonn (CGN) - Heathrow (LHR) EW460 2019-06-25 08:27:00
Dublin (DUB) - Koln Bonn (CGN) EW397 2019-06-25 06:40:00
Koln Bonn (CGN) - Dublin (DUB) EW396 2019-06-24 20:10:00
Villafranca (VRN) - Koln Bonn (CGN) EW843 2019-06-24 16:58:00
Koln Bonn (CGN) - Villafranca (VRN) EW842 2019-06-24 15:41:00
Zurich (ZRH) - Koln Bonn (CGN) EW767 2019-06-24 12:25:00
Koln Bonn (CGN) - Zurich (ZRH) EW766 2019-06-24 11:04:00
Time Lat Lon Altitude Heading Speed Vertical Rate
2019-05-18 18:26:16 GMT 36.775661 27.105902 650 327 122 -640
2019-05-18 18:26:08 GMT 36.771893 27.108883 750 327 120 -704
2019-05-18 18:25:59 GMT 36.767212 27.112656 850 328 121 -512
2019-05-18 18:25:49 GMT 36.762070 27.116772 950 324 120 -704
2019-05-18 18:25:37 GMT 36.757133 27.121971 1,075 315 121 -832
2019-05-18 18:25:26 GMT 36.753269 27.126881 1,200 314 118 -576
2019-05-18 18:25:16 GMT 36.749268 27.132080 1,300 316 119 -512
2019-05-18 18:25:05 GMT 36.744892 27.137281 1,400 322 131 -768
2019-05-18 18:24:55 GMT 36.739536 27.142542 1,575 322 142 -640
2019-05-18 18:24:43 GMT 36.733475 27.148476 1,700 322 151 -1024
2019-05-18 18:24:33 GMT 36.727936 27.153854 1,850 323 156 -960
2019-05-18 18:24:21 GMT 36.721478 27.160072 2,000 323 164 -896
2019-05-18 18:24:12 GMT 36.714981 27.166271 2,175 323 169 -960
2019-05-18 18:23:59 GMT 36.706673 27.174156 2,350 323 173 -832
2019-05-18 18:23:49 GMT 36.700928 27.179890 2,475 322 175 -576
2019-05-18 18:23:39 GMT 36.694710 27.186020 2,525 322 174 0
2019-05-18 18:23:28 GMT 36.687771 27.192799 2,525 322 175 0
2019-05-18 18:23:18 GMT 36.680695 27.199753 2,550 322 175 0
2019-05-18 18:23:07 GMT 36.673737 27.206497 2,525 323 174 192
2019-05-18 18:22:55 GMT 36.666779 27.213020 2,500 324 180 -128
2019-05-18 18:22:45 GMT 36.656296 27.223091 2,575 322 190 -576
2019-05-18 18:22:29 GMT 36.648903 27.230200 2,700 330 193 -576
2019-05-18 18:22:14 GMT 36.636108 27.234707 2,875 3 199 -512
2019-05-18 18:22:07 GMT 36.628876 27.231960 3,100 30 205 -832
2019-05-18 18:21:57 GMT 36.621902 27.224121 3,275 59 212 -1216
2019-05-18 18:21:45 GMT 36.616333 27.212734 3,475 61 211 -704
2019-05-18 18:21:33 GMT 36.611023 27.200089 3,550 64 210 0
2019-05-18 18:21:24 GMT 36.606865 27.188707 3,575 68 217 -448
2019-05-18 18:21:14 GMT 36.603233 27.176611 3,700 73 222 -1344
2019-05-18 18:21:01 GMT 36.599899 27.162552 3,950 75 221 -1472
2019-05-18 18:20:51 GMT 36.597290 27.149677 4,250 75 219 -1088
2019-05-18 18:20:41 GMT 36.594589 27.137032 4,375 75 219 -960
2019-05-18 18:20:29 GMT 36.592117 27.123013 4,525 92 225 -1216
2019-05-18 18:20:19 GMT 36.593033 27.108994 4,700 112 232 -1280
2019-05-18 18:20:08 GMT 36.597786 27.096085 4,900 127 236 -1408
2019-05-18 18:19:57 GMT 36.605656 27.086266 5,050 147 237 -704
2019-05-18 18:19:48 GMT 36.616177 27.079662 5,050 172 237 -384
2019-05-18 18:19:35 GMT 36.628967 27.078438 5,050 191 234 -384
2019-05-18 18:19:26 GMT 36.639267 27.082329 5,075 210 229 -256
2019-05-18 18:19:15 GMT 36.648376 27.090511 5,075 230 224 -256
2019-05-18 18:19:02 GMT 36.655605 27.103271 5,150 248 227 -896
2019-05-18 18:18:51 GMT 36.659180 27.117004 5,325 264 225 -896
2019-05-18 18:18:41 GMT 36.658863 27.131145 5,525 282 224 -832
2019-05-18 18:18:31 GMT 36.655697 27.142307 5,675 302 222 -640
2019-05-18 18:18:20 GMT 36.649414 27.153002 5,850 320 224 -640
2019-05-18 18:18:08 GMT 36.639217 27.161417 6,050 339 225 -960
2019-05-18 18:17:58 GMT 36.629013 27.164555 6,250 359 226 -832
2019-05-18 18:17:47 GMT 36.617477 27.163353 6,475 19 229 -896
2019-05-18 18:17:38 GMT 36.607544 27.157917 6,700 37 233 -896
2019-05-18 18:17:26 GMT 36.598480 27.147102 6,850 58 239 -1088
2019-05-18 18:17:14 GMT 36.593491 27.132053 7,075 78 246 -896
2019-05-18 18:17:04 GMT 36.591827 27.118582 7,200 84 252 -1024
2019-05-18 18:16:54 GMT 36.590790 27.102642 7,375 87 254 -1344
2019-05-18 18:16:43 GMT 36.590664 27.086792 7,650 91 254 -1664
2019-05-18 18:16:32 GMT 36.591248 27.072029 7,900 95 254 -1280
2019-05-18 18:16:21 GMT 36.592712 27.055607 8,100 98 255 -960
2019-05-18 18:16:09 GMT 36.595226 27.038113 8,300 102 259 -1152
2019-05-18 18:16:00 GMT 36.597881 27.024614 8,425 106 263 -960
2019-05-18 18:15:50 GMT 36.601730 27.009029 8,575 109 268 -832
2019-05-18 18:15:39 GMT 36.606770 26.992533 8,750 113 271 -1344
2019-05-18 18:15:27 GMT 36.612213 26.977844 9,000 117 271 -1920
2019-05-18 18:15:17 GMT 36.618969 26.962729 9,325 122 273 -1600
2019-05-18 18:15:06 GMT 36.626633 26.948090 9,575 125 278 -1472
2019-05-18 18:14:54 GMT 36.635262 26.933567 9,850 129 284 -1920
2019-05-18 18:14:44 GMT 36.644302 26.920452 10,175 133 285 -2240
2019-05-18 18:14:33 GMT 36.654907 26.907330 10,600 137 284 -2240
2019-05-18 18:14:20 GMT 36.666496 26.894999 10,975 141 284 -2112
2019-05-18 18:14:10 GMT 36.677391 26.884947 11,275 145 285 -1920
2019-05-18 18:14:00 GMT 36.688843 26.875772 11,575 149 287 -1664
2019-05-18 18:13:50 GMT 36.701782 26.866833 11,825 153 296 -1088
2019-05-18 18:13:38 GMT 36.716446 26.858540 11,975 158 305 -1088
2019-05-18 18:13:28 GMT 36.730316 26.852245 12,150 166 321 -1088
2019-05-18 18:13:14 GMT 36.748032 26.846352 12,325 169 331 -1024
2019-05-18 18:13:05 GMT 36.762211 26.842989 12,475 164 341 -896
2019-05-18 18:12:55 GMT 36.777760 26.837320 12,675 153 355 -768
2019-05-18 18:12:44 GMT 36.793304 26.826509 12,875 142 369 -512
2019-05-18 18:12:32 GMT 36.807735 26.809387 13,050 124 386 -832
2019-05-18 18:12:21 GMT 36.817886 26.787182 13,275 111 396 -1024
2019-05-18 18:12:12 GMT 36.823238 26.765968 13,475 99 408 -896
2019-05-18 18:12:00 GMT 36.826355 26.739864 13,650 97 425 -960
2019-05-18 18:11:50 GMT 36.829060 26.713900 13,850 100 442 -1856
2019-05-18 18:11:38 GMT 36.834038 26.684681 14,250 106 450 -3328
2019-05-18 18:11:26 GMT 36.842514 26.655064 14,975 113 454 -3520
2019-05-18 18:11:15 GMT 36.851440 26.629047 15,650 113 456 -3200
2019-05-18 18:11:04 GMT 36.860367 26.602926 16,200 112 460 -3008
2019-05-18 18:10:54 GMT 36.869476 26.576103 16,700 113 467 -2816
2019-05-18 18:10:43 GMT 36.879566 26.549894 17,175 123 477 -3200
2019-05-18 18:10:32 GMT 36.894196 26.525496 22,575 153 491 -4032
2019-05-18 18:10:20 GMT 36.914528 26.503740 18,600 145 481 -5312
2019-05-18 18:10:11 GMT 36.931660 26.490604 19,350 152 474 -4800
2019-05-18 18:09:59 GMT 36.955353 26.475498 20,150 153 475 -3520
2019-05-18 18:09:48 GMT 36.976089 26.462383 20,650 153 482 -2624
2019-05-18 18:09:37 GMT 36.998787 26.448092 21,250 153 488 -3200
2019-05-18 18:09:27 GMT 37.018387 26.435734 21,750 153 491 -4032
2019-05-18 18:09:16 GMT 37.039764 26.422178 22,450 153 493 -3840
2019-05-18 18:09:05 GMT 37.088589 26.391310 23,900 153 494 -4224
2019-05-18 18:08:53 GMT 37.088589 26.391310 23,900 153 494 -4224
2019-05-18 18:08:43 GMT 37.107162 26.379547 24,650 152 495 -3776
2019-05-18 18:08:32 GMT 37.130951 26.364382 25,325 153 498 -3200
2019-05-18 18:08:20 GMT 37.154507 26.349394 25,825 153 500 -4032
2019-05-18 18:08:10 GMT 37.175858 26.335865 26,625 153 499 -3776
2019-05-18 18:07:58 GMT 37.217972 26.309217 27,700 153 501 -3200
2019-05-18 18:07:50 GMT 37.217972 26.309217 28,225 153 498 -4096
2019-05-18 18:07:38 GMT 37.242828 26.293440 28,700 153 497 -3648
2019-05-18 18:07:25 GMT 37.268230 26.277327 29,350 153 499 -3136
2019-05-18 18:07:16 GMT 37.287964 26.264805 29,850 152 501 -3328
2019-05-18 18:07:06 GMT 37.307289 26.252487 30,275 153 502 -3136
2019-05-18 18:06:56 GMT 37.329849 26.238098 31,125 152 503 -3200
2019-05-18 18:06:51 GMT 37.339371 26.232021 31,125 152 503 -3008
2019-05-18 18:06:44 GMT 37.355053 26.221916 31,500 152 503 -3008
2019-05-18 18:06:37 GMT 37.367889 26.213730 31,775 152 504 -2752
2019-05-18 18:06:31 GMT 37.381027 26.205378 32,075 152 506 -2496
2019-05-18 18:06:21 GMT 37.408539 26.187782 32,625 152 509 -2624
2019-05-18 18:06:11 GMT 37.422501 26.178783 32,975 152 509 -3264
2019-05-18 18:06:01 GMT 37.445023 26.164349 33,575 152 508 -3328
2019-05-18 18:05:54 GMT 37.457108 26.156576 33,900 152 506 -3264
2019-05-18 18:05:50 GMT 37.466034 26.150850 34,100 152 506 -3200
2019-05-18 18:05:38 GMT 37.490616 26.135014 34,775 152 502 -3712
2019-05-18 18:05:31 GMT 37.507278 26.124294 35,275 152 500 -3648
2019-05-18 18:05:26 GMT 37.515423 26.119040 35,525 152 498 -3456
2019-05-18 18:05:20 GMT 37.529297 26.110119 35,950 152 495 -3776
2019-05-18 18:05:13 GMT 37.541958 26.102022 36,325 153 490 -3776
2019-05-18 18:05:09 GMT 37.551128 26.096172 36,650 153 487 -3712
2019-05-18 18:05:05 GMT 37.572868 26.082319 37,150 153 482 -3648
2019-05-18 18:04:59 GMT 37.572868 26.082319 37,275 153 481 -3712
2019-05-18 18:04:54 GMT 37.581207 26.077044 37,600 153 477 -3904
2019-05-18 18:04:48 GMT 37.594482 26.068569 37,975 153 474 -3392
2019-05-18 18:04:42 GMT 37.604645 26.062082 38,475 152 466 -2368
2019-05-18 18:04:39 GMT 37.610435 26.058435 38,475 152 465 0
2019-05-18 18:04:35 GMT 37.619980 26.052225 38,675 152 467 -2496
2019-05-18 18:04:29 GMT 37.630005 26.045778 38,900 152 465 -1920
2019-05-18 18:04:25 GMT 37.637695 26.040871 38,975 152 464 -768
2019-05-18 18:04:20 GMT 37.649048 26.033506 39,025 152 465 -64
2019-05-18 18:04:15 GMT 37.657837 26.027897 39,025 152 465 0
2019-05-18 18:04:08 GMT 37.670071 26.019983 39,025 152 464 0
2019-05-18 18:04:05 GMT 37.675964 26.016209 39,025 152 465 0
2019-05-18 18:03:59 GMT 37.687317 26.008905 39,025 152 465 0
2019-05-18 18:03:54 GMT 37.696793 26.002769 39,025 152 465 0
2019-05-18 18:03:44 GMT 37.717228 25.989592 39,025 152 465 0
2019-05-18 18:03:38 GMT 37.727936 25.982666 39,025 152 465 0
2019-05-18 18:03:31 GMT 37.739594 25.975185 39,025 152 465 0
2019-05-18 18:03:28 GMT 37.748882 25.969172 39,025 152 465 0
2019-05-18 18:03:22 GMT 37.758659 25.962843 39,025 152 465 0
2019-05-18 18:03:12 GMT 37.778397 25.950125 39,025 152 465 64
2019-05-18 18:03:05 GMT 37.791199 25.941826 39,025 152 465 0
2019-05-18 18:03:00 GMT 37.799881 25.936209 39,025 152 465 0
2019-05-18 18:02:52 GMT 37.814163 25.926975 39,025 152 465 0
2019-05-18 18:02:49 GMT 37.820618 25.922768 39,025 152 465 64
2019-05-18 18:02:42 GMT 37.841522 25.909285 39,000 152 464 0
2019-05-18 18:02:38 GMT 37.841522 25.909285 39,000 152 464 0
2019-05-18 18:02:32 GMT 37.852982 25.901962 39,000 152 464 64
2019-05-18 18:02:27 GMT 37.862656 25.895731 39,000 152 464 0
2019-05-18 18:02:21 GMT 37.874527 25.888088 39,000 152 464 0
2019-05-18 18:02:16 GMT 37.883045 25.882595 39,000 152 464 0
2019-05-18 18:02:09 GMT 37.896500 25.873817 39,000 152 463 0
2019-05-18 18:02:06 GMT 37.903343 25.869398 39,000 152 463 0
2019-05-18 18:02:01 GMT 37.914459 25.862167 39,000 152 463 0
2019-05-18 18:01:54 GMT 37.925224 25.855129 39,000 152 462 0
2019-05-18 18:01:49 GMT 37.937393 25.847265 39,000 152 461 64
2019-05-18 18:01:46 GMT 37.943146 25.843546 39,000 152 461 0
2019-05-18 18:01:43 GMT 37.945816 25.841831 39,000 152 461 64
2019-05-18 18:01:37 GMT 37.957485 25.834230 39,000 152 461 0
2019-05-18 18:01:34 GMT 37.966049 25.828678 39,000 152 461 64
2019-05-18 18:01:27 GMT 37.976711 25.821753 39,000 152 460 0
2019-05-18 18:01:21 GMT 38.000687 25.806288 39,000 152 460 0
2019-05-18 18:01:15 GMT 38.000687 25.806288 39,000 153 459 -128
2019-05-18 18:01:10 GMT 38.009296 25.800735 39,000 153 458 -64
2019-05-18 18:01:00 GMT 38.028214 25.788534 39,025 152 458 -64
2019-05-18 18:00:51 GMT 38.046204 25.776848 39,000 152 460 64
2019-05-18 18:00:48 GMT 38.050121 25.774284 39,000 152 460 0
2019-05-18 18:00:43 GMT 38.061111 25.767118 39,000 152 461 -64
2019-05-18 18:00:38 GMT 38.072468 25.759714 39,000 152 463 -128
2019-05-18 18:00:29 GMT 38.087738 25.749804 39,025 152 465 -64
2019-05-18 18:00:24 GMT 38.098118 25.742937 39,025 152 465 0
2019-05-18 18:00:20 GMT 38.104980 25.738455 39,025 152 467 64
2019-05-18 18:00:13 GMT 38.116882 25.730682 39,025 152 468 192
2019-05-18 18:00:10 GMT 38.123302 25.726458 39,000 152 477 -64
2019-05-18 18:00:04 GMT 38.138062 25.716785 38,950 152 475 64
2019-05-18 17:59:58 GMT 38.146957 25.710871 38,975 152 478 -64
2019-05-18 17:59:53 GMT 38.155884 25.705086 39,000 152 478 0
2019-05-18 17:59:46 GMT 38.170441 25.695560 39,000 152 478 0
2019-05-18 17:59:42 GMT 38.179165 25.689917 39,000 152 478 0
2019-05-18 17:59:39 GMT 38.185959 25.685509 39,000 152 478 0
2019-05-18 17:59:34 GMT 38.195042 25.679586 39,000 152 478 0
2019-05-18 17:59:30 GMT 38.201138 25.675587 39,000 152 479 0
2019-05-18 17:59:23 GMT 38.216129 25.665794 39,000 152 479 0
2019-05-18 17:59:20 GMT 38.237686 25.651731 39,000 152 479 0
2019-05-18 17:59:13 GMT 38.237686 25.651731 39,000 152 479 0
2019-05-18 17:59:09 GMT 38.242756 25.648418 39,000 152 479 0
2019-05-18 17:59:02 GMT 38.257782 25.638525 39,000 152 479 0
2019-05-18 17:58:59 GMT 38.264282 25.634258 39,000 152 481 64
2019-05-18 17:58:51 GMT 38.280396 25.623623 39,025 152 481 -128
2019-05-18 17:58:48 GMT 38.285351 25.620356 39,000 152 481 64
2019-05-18 17:58:44 GMT 38.293453 25.615042 39,025 152 482 64
2019-05-18 17:58:38 GMT 38.305389 25.607203 39,000 152 482 128
2019-05-18 17:58:35 GMT 38.309978 25.604176 39,000 152 483 128
2019-05-18 17:58:31 GMT 38.318069 25.598846 39,000 152 484 64
2019-05-18 17:58:26 GMT 38.329468 25.591307 38,975 152 486 -128
2019-05-18 17:58:22 GMT 38.336746 25.586443 39,000 152 486 -64
2019-05-18 17:58:19 GMT 38.343887 25.581722 39,025 152 486 -64
2019-05-18 17:58:13 GMT 38.353783 25.575157 39,025 152 486 -64
2019-05-18 17:58:08 GMT 38.364491 25.568111 39,025 152 485 0
2019-05-18 17:58:03 GMT 38.373940 25.561842 39,025 152 485 64
2019-05-18 17:57:58 GMT 38.384583 25.554842 39,025 152 485 64
2019-05-18 17:57:53 GMT 38.395157 25.547829 39,025 152 486 64
2019-05-18 17:57:45 GMT 38.410858 25.537481 39,025 152 486 0
2019-05-18 17:57:41 GMT 38.417980 25.532837 39,025 152 486 0
2019-05-18 17:57:36 GMT 38.428116 25.526196 39,025 152 486 0
2019-05-18 17:57:30 GMT 38.440742 25.517883 39,000 152 486 0
2019-05-18 17:57:24 GMT 38.453110 25.509775 39,000 152 486 0
2019-05-18 17:57:18 GMT 38.465012 25.501896 39,000 152 486 64
2019-05-18 17:57:15 GMT 38.471420 25.497681 39,000 152 486 64
2019-05-18 17:57:07 GMT 38.485619 25.488281 39,000 152 486 0
2019-05-18 17:57:04 GMT 38.493210 25.483276 39,000 152 486 0
2019-05-18 17:56:57 GMT 38.509174 25.472717 39,000 152 486 0
2019-05-18 17:56:54 GMT 38.512386 25.470581 39,000 152 486 0
2019-05-18 17:56:44 GMT 38.533524 25.456665 39,000 152 485 0
2019-05-18 17:56:35 GMT 38.549301 25.446228 39,000 152 485 0
2019-05-18 17:56:32 GMT 38.556473 25.441469 39,000 152 485 0
2019-05-18 17:56:25 GMT 38.571041 25.431763 39,000 152 485 0
2019-05-18 17:56:21 GMT 38.578033 25.427139 39,000 152 485 0
2019-05-18 17:56:14 GMT 38.592785 25.417358 39,000 152 484 0
2019-05-18 17:56:10 GMT 38.599823 25.412691 39,000 152 485 -64
2019-05-18 17:56:01 GMT 38.619507 25.399555 39,000 152 485 -64
2019-05-18 17:55:56 GMT 38.626923 25.394659 39,025 152 485 -64
2019-05-18 17:55:51 GMT 38.638542 25.386902 39,025 152 484 0
2019-05-18 17:55:46 GMT 38.647900 25.380676 39,025 152 484 64
2019-05-18 17:55:38 GMT 38.662903 25.370775 39,000 152 485 64
2019-05-18 17:55:29 GMT 38.682907 25.357300 39,000 150 487 128
2019-05-18 17:55:24 GMT 38.690506 25.351788 39,000 149 487 64
2019-05-18 17:55:18 GMT 38.702042 25.342896 39,000 146 489 128
2019-05-18 17:55:06 GMT 38.725204 25.323128 38,975 143 492 256
2019-05-18 17:54:56 GMT 38.744156 25.304678 38,975 140 494 64
2019-05-18 17:54:45 GMT 38.763977 25.282944 39,000 136 495 64
2019-05-18 17:54:33 GMT 38.782482 25.260437 38,975 136 494 0
2019-05-18 17:54:22 GMT 38.800175 25.238708 38,975 136 494 0
2019-05-18 17:54:19 GMT 38.805527 25.232117 38,975 136 494 0
2019-05-18 17:54:12 GMT 38.817947 25.216846 38,975 136 494 0
2019-05-18 17:54:09 GMT 38.822617 25.211056 38,975 136 494 0
2019-05-18 17:53:58 GMT 38.840160 25.189514 38,975 136 495 0
2019-05-18 17:53:50 GMT 38.854385 25.172007 39,000 136 494 -64
2019-05-18 17:53:38 GMT 38.873291 25.148661 39,000 136 494 0
2019-05-18 17:53:27 GMT 38.900681 25.114929 39,000 135 493 0
2019-05-18 17:53:16 GMT 38.910324 25.102983 39,000 136 494 0
2019-05-18 17:53:13 GMT 38.914352 25.097967 39,000 136 494 0
2019-05-18 17:53:10 GMT 38.921860 25.088745 39,000 136 494 0
2019-05-18 17:53:05 GMT 38.928516 25.080444 39,000 136 494 0
2019-05-18 17:52:52 GMT 38.948639 25.055635 39,000 136 494 0
2019-05-18 17:52:42 GMT 38.965851 25.034378 39,000 135 495 0
2019-05-18 17:52:36 GMT 38.975281 25.022676 39,000 135 495 0
2019-05-18 17:52:29 GMT 38.992126 25.001839 39,000 135 495 -64
2019-05-18 17:52:26 GMT 38.992126 25.001839 39,000 135 495 -64
2019-05-18 17:52:20 GMT 39.001328 24.990374 39,000 135 495 -64
2019-05-18 17:52:15 GMT 39.009609 24.980103 39,025 135 495 -64
2019-05-18 17:52:09 GMT 39.026745 24.958862 39,025 135 495 0
2019-05-18 17:52:05 GMT 39.026745 24.958862 39,025 135 495 0
2019-05-18 17:52:01 GMT 39.032932 24.951172 39,025 135 495 0
2019-05-18 17:51:58 GMT 39.037266 24.945862 39,025 135 495 64
2019-05-18 17:51:54 GMT 39.044479 24.936890 39,025 136 494 64
2019-05-18 17:51:48 GMT 39.055187 24.923645 39,000 135 495 64
2019-05-18 17:51:45 GMT 39.059143 24.918724 39,000 135 495 0
2019-05-18 17:51:41 GMT 39.065659 24.910706 39,000 135 495 0
2019-05-18 17:51:37 GMT 39.072647 24.902004 39,000 135 495 0
2019-05-18 17:51:29 GMT 39.085354 24.886169 39,000 135 495 0
2019-05-18 17:51:26 GMT 39.091217 24.878906 39,000 135 495 0
2019-05-18 17:51:21 GMT 39.098282 24.870121 39,025 135 495 0
2019-05-18 17:51:17 GMT 39.105045 24.861633 39,000 135 495 0
2019-05-18 17:51:14 GMT 39.110825 24.854418 39,025 135 494 0
2019-05-18 17:51:06 GMT 39.122772 24.839491 39,000 135 495 0
2019-05-18 17:51:03 GMT 39.141819 24.815796 39,000 135 491 0
2019-05-18 17:50:55 GMT 39.141819 24.815796 39,025 135 494 -64
2019-05-18 17:50:50 GMT 39.150433 24.805115 39,025 135 493 0
2019-05-18 17:50:46 GMT 39.158718 24.794800 39,025 135 493 64
2019-05-18 17:50:43 GMT 39.163422 24.788918 39,025 135 492 128
2019-05-18 17:50:40 GMT 39.165894 24.785873 39,025 135 492 128
2019-05-18 17:50:35 GMT 39.175049 24.774467 39,000 135 493 128
2019-05-18 17:50:30 GMT 39.183060 24.764437 38,975 135 493 128
2019-05-18 17:50:25 GMT 39.191940 24.753391 38,975 135 493 0
2019-05-18 17:50:19 GMT 39.201233 24.741749 39,000 135 494 -64
2019-05-18 17:50:14 GMT 39.211212 24.729269 39,000 135 492 0
2019-05-18 17:50:06 GMT 39.221748 24.716125 39,000 135 493 0
2019-05-18 17:50:03 GMT 39.227291 24.709167 39,000 135 492 0
2019-05-18 17:49:57 GMT 39.236389 24.697742 39,000 135 492 0
2019-05-18 17:49:52 GMT 39.246872 24.684727 39,000 135 492 0
2019-05-18 17:49:47 GMT 39.252663 24.677429 39,000 135 492 0
2019-05-18 17:49:42 GMT 39.261383 24.666456 39,000 135 491 0
2019-05-18 17:49:35 GMT 39.272552 24.652485 39,000 135 491 64
2019-05-18 17:49:32 GMT 39.278728 24.644714 39,000 135 491 64
2019-05-18 17:49:21 GMT 39.295395 24.623884 39,000 135 491 0
2019-05-18 17:49:14 GMT 39.308010 24.608032 39,000 135 491 0
2019-05-18 17:49:11 GMT 39.313110 24.601612 39,000 135 490 0
2019-05-18 17:49:03 GMT 39.326027 24.585510 39,000 135 490 0
2019-05-18 17:48:59 GMT 39.330826 24.579460 39,000 135 490 0
2019-05-18 17:48:53 GMT 39.339844 24.568176 39,000 135 487 0
2019-05-18 17:48:48 GMT 39.348186 24.557678 39,000 135 490 0
2019-05-18 17:48:43 GMT 39.357216 24.546326 39,000 135 489 64
2019-05-18 17:48:38 GMT 39.365433 24.536053 39,000 135 490 64
2019-05-18 17:48:31 GMT 39.375916 24.522738 39,000 135 490 64
2019-05-18 17:48:26 GMT 39.383972 24.512589 39,000 135 490 64
2019-05-18 17:48:21 GMT 39.392670 24.501602 39,000 135 489 0
2019-05-18 17:48:17 GMT 39.398254 24.494556 39,000 135 489 0
2019-05-18 17:48:08 GMT 39.415642 24.472534 39,000 135 489 -64
2019-05-18 17:48:00 GMT 39.427044 24.458130 39,000 135 488 0
2019-05-18 17:47:55 GMT 39.434784 24.448282 39,000 135 488 0
2019-05-18 17:47:49 GMT 39.443756 24.436890 39,000 135 487 0
2019-05-18 17:47:45 GMT 39.449982 24.429056 39,000 135 487 0
2019-05-18 17:47:36 GMT 39.467010 24.407501 39,000 135 487 0
2019-05-18 17:47:27 GMT 39.478867 24.392454 39,000 135 487 0
2019-05-18 17:47:24 GMT 39.484955 24.384827 39,000 135 487 0
2019-05-18 17:47:18 GMT 39.494431 24.372869 39,000 135 487 0
2019-05-18 17:47:15 GMT 39.501297 24.364271 39,000 135 487 0
2019-05-18 17:47:07 GMT 39.511677 24.351196 39,000 135 486 0
2019-05-18 17:47:01 GMT 39.523129 24.336792 39,000 135 486 0
2019-05-18 17:46:54 GMT 39.533340 24.323790 39,000 135 486 0
2019-05-18 17:46:49 GMT 39.540390 24.314835 39,000 135 486 0
2019-05-18 17:46:46 GMT 39.545242 24.308655 39,000 135 486 0
2019-05-18 17:46:41 GMT 39.555084 24.296206 39,000 135 485 64
2019-05-18 17:46:34 GMT 39.564980 24.283691 39,000 135 485 64
2019-05-18 17:46:27 GMT 39.575405 24.270447 39,000 135 485 0
2019-05-18 17:46:23 GMT 39.581833 24.262329 39,000 135 485 64
2019-05-18 17:46:17 GMT 39.592255 24.249035 39,000 135 485 0
2019-05-18 17:46:14 GMT 39.596123 24.244141 39,000 135 485 0
2019-05-18 17:46:10 GMT 39.603153 24.235168 39,000 135 485 0
2019-05-18 17:46:06 GMT 39.610832 24.225342 39,000 135 485 0
2019-05-18 17:46:03 GMT 39.615417 24.219481 39,000 135 485 0
2019-05-18 17:45:55 GMT 39.627640 24.203979 39,000 135 485 0
2019-05-18 17:45:52 GMT 39.632355 24.197985 39,000 135 485 0
2019-05-18 17:45:42 GMT 39.649101 24.176697 39,000 135 485 0
2019-05-18 17:45:31 GMT 39.665680 24.155533 39,000 135 485 64
2019-05-18 17:45:21 GMT 39.685867 24.129799 39,000 135 485 -64
2019-05-18 17:45:11 GMT 39.699284 24.112732 39,000 135 485 -64
2019-05-18 17:45:08 GMT 39.701797 24.109497 39,000 135 485 -64
2019-05-18 17:45:01 GMT 39.715576 24.091980 39,025 135 484 0
2019-05-18 17:44:58 GMT 39.722698 24.082825 39,025 135 484 -64
2019-05-18 17:44:51 GMT 39.729080 24.074686 39,025 135 484 0
2019-05-18 17:44:47 GMT 39.737000 24.064537 39,025 135 484 64
2019-05-18 17:44:44 GMT 39.740250 24.060425 39,025 135 484 64
2019-05-18 17:44:38 GMT 39.750584 24.047180 39,025 135 484 64
2019-05-18 17:44:34 GMT 39.757874 24.037848 39,025 135 485 64
2019-05-18 17:44:26 GMT 39.769272 24.023218 39,000 135 485 0
2019-05-18 17:44:23 GMT 39.774216 24.016890 39,000 135 485 64
2019-05-18 17:44:16 GMT 39.786804 24.000828 39,000 135 484 0
2019-05-18 17:44:12 GMT 39.791737 23.994507 39,000 135 484 0
2019-05-18 17:44:06 GMT 39.802505 23.980646 39,000 135 484 64
2019-05-18 17:44:03 GMT 39.805794 23.976440 39,000 135 484 64
2019-05-18 17:43:55 GMT 39.820271 23.957886 39,000 135 483 64
2019-05-18 17:43:44 GMT 39.840912 23.931387 39,000 135 483 0
2019-05-18 17:43:31 GMT 39.856537 23.911316 39,000 135 482 0
2019-05-18 17:43:23 GMT 39.870850 23.892935 39,000 135 482 0
2019-05-18 17:43:11 GMT 39.890331 23.867920 39,000 135 482 0
2019-05-18 17:43:03 GMT 39.907700 23.845646 39,000 135 482 -64
2019-05-18 17:43:00 GMT 39.907700 23.845646 39,000 135 481 0
2019-05-18 17:42:50 GMT 39.921246 23.828186 39,000 135 481 0
2019-05-18 17:42:46 GMT 39.927567 23.820129 39,000 135 481 0
2019-05-18 17:42:41 GMT 39.936951 23.807983 39,000 135 481 -64
2019-05-18 17:42:37 GMT 39.942379 23.801006 39,000 135 481 -64
2019-05-18 17:42:33 GMT 39.949448 23.791931 39,000 135 480 -64
2019-05-18 17:42:28 GMT 39.960766 23.777348 39,025 135 480 -128
2019-05-18 17:42:25 GMT 39.965374 23.771355 39,025 135 480 -128
2019-05-18 17:42:22 GMT 39.965374 23.771355 39,025 135 480 -128
2019-05-18 17:42:19 GMT 39.970451 23.764801 39,025 135 480 -128
2019-05-18 17:42:12 GMT 39.981537 23.750427 39,050 135 479 -64
2019-05-18 17:42:07 GMT 39.989319 23.740356 39,050 135 478 64
2019-05-18 17:42:02 GMT 39.998703 23.728149 39,025 135 478 64
2019-05-18 17:41:59 GMT 40.003315 23.722166 39,025 135 478 64
2019-05-18 17:41:56 GMT 40.006165 23.718445 39,025 135 479 64
2019-05-18 17:41:49 GMT 40.019165 23.701538 39,025 135 479 64
2019-05-18 17:41:46 GMT 40.022263 23.697510 39,025 135 479 64
2019-05-18 17:41:41 GMT 40.030197 23.687256 39,000 135 479 64
2019-05-18 17:41:38 GMT 40.035763 23.680033 39,000 135 479 64
2019-05-18 17:41:35 GMT 40.038986 23.675781 39,000 135 479 64
2019-05-18 17:41:31 GMT 40.045670 23.667114 39,000 135 478 0
2019-05-18 17:41:25 GMT 40.055920 23.653877 39,000 135 478 64
2019-05-18 17:41:20 GMT 40.062744 23.644958 39,000 135 478 64
2019-05-18 17:41:14 GMT 40.073795 23.630655 39,000 135 478 128
2019-05-18 17:41:11 GMT 40.078499 23.624538 38,975 135 478 64
2019-05-18 17:41:04 GMT 40.089252 23.610619 38,975 135 478 64
2019-05-18 17:41:01 GMT 40.093719 23.604813 38,975 135 478 64
2019-05-18 17:40:52 GMT 40.109501 23.584463 38,975 135 478 64
2019-05-18 17:40:41 GMT 40.125183 23.564148 38,975 135 478 0
2019-05-18 17:40:31 GMT 40.140701 23.544006 38,975 135 477 0
2019-05-18 17:40:20 GMT 40.156586 23.523315 38,975 135 476 64
2019-05-18 17:40:11 GMT 40.172253 23.502876 38,950 134 475 64
2019-05-18 17:39:59 GMT 40.189339 23.480530 38,950 134 475 0
2019-05-18 17:39:49 GMT 40.205212 23.459743 38,975 134 474 -64
2019-05-18 17:39:41 GMT 40.218899 23.441891 38,975 135 473 -64
2019-05-18 17:39:38 GMT 40.222595 23.437073 38,975 135 473 -64
2019-05-18 17:39:31 GMT 40.234543 23.421478 38,975 135 473 0
2019-05-18 17:39:27 GMT 40.239197 23.415422 38,975 135 473 0
2019-05-18 17:39:20 GMT 40.257259 23.391890 39,000 135 473 -128
2019-05-18 17:39:07 GMT 40.272903 23.371582 39,000 135 473 -128
2019-05-18 17:39:00 GMT 40.289474 23.349976 39,025 135 473 -64
2019-05-18 17:38:56 GMT 40.289474 23.349976 39,025 134 473 0
2019-05-18 17:38:48 GMT 40.299362 23.337097 39,025 134 473 64
2019-05-18 17:38:45 GMT 40.306465 23.327721 39,025 134 473 64
2019-05-18 17:38:40 GMT 40.312775 23.319519 39,025 134 473 0
2019-05-18 17:38:33 GMT 40.323578 23.305237 39,025 134 473 -64
2019-05-18 17:38:29 GMT 40.329849 23.296997 39,025 134 473 -64
2019-05-18 17:38:23 GMT 40.338818 23.285149 39,050 134 474 0
2019-05-18 17:38:19 GMT 40.345001 23.276978 39,025 134 473 0
2019-05-18 17:38:13 GMT 40.354507 23.264423 39,025 134 474 0
2019-05-18 17:38:10 GMT 40.373219 23.239767 39,025 134 474 64
2019-05-18 17:38:02 GMT 40.373219 23.239767 39,025 134 474 64
2019-05-18 17:37:53 GMT 40.385468 23.223694 39,025 134 475 64
2019-05-18 17:37:49 GMT 40.391785 23.215393 39,025 134 475 64
2019-05-18 17:37:42 GMT 40.401672 23.202393 39,000 134 475 64
2019-05-18 17:37:39 GMT 40.406982 23.195374 39,000 134 475 64
2019-05-18 17:37:32 GMT 40.418095 23.180716 39,025 134 475 64
2019-05-18 17:37:29 GMT 40.422844 23.174536 39,000 134 475 64
2019-05-18 17:37:19 GMT 40.438301 23.154123 39,000 134 475 64
2019-05-18 17:37:08 GMT 40.454865 23.132263 39,000 134 474 0
2019-05-18 17:36:58 GMT 40.470467 23.111675 39,000 134 474 0
2019-05-18 17:36:52 GMT 40.478943 23.100464 39,000 134 475 0
2019-05-18 17:36:48 GMT 40.486992 23.089766 39,000 134 475 0
2019-05-18 17:36:39 GMT 40.499954 23.072693 39,000 134 475 0
2019-05-18 17:36:36 GMT 40.504078 23.067169 39,000 134 474 0
2019-05-18 17:36:32 GMT 40.510345 23.058838 39,000 134 474 0
2019-05-18 17:36:26 GMT 40.521114 23.044573 39,000 134 475 0
2019-05-18 17:36:20 GMT 40.528107 23.035339 39,000 134 475 0
2019-05-18 17:36:14 GMT 40.537857 23.022400 39,000 134 474 64
2019-05-18 17:36:10 GMT 40.543991 23.014282 39,000 134 474 64
2019-05-18 17:36:07 GMT 40.548676 23.008118 39,000 134 474 64
2019-05-18 17:36:04 GMT 40.553604 23.001648 39,000 134 474 128
2019-05-18 17:35:57 GMT 40.563663 22.988331 39,000 134 474 64
2019-05-18 17:35:53 GMT 40.569946 22.979980 38,975 134 475 64
2019-05-18 17:35:50 GMT 40.574753 22.973633 38,975 134 475 64
2019-05-18 17:35:47 GMT 40.579926 22.966797 38,975 134 475 0
2019-05-18 17:35:42 GMT 40.587845 22.956238 38,975 134 475 0
2019-05-18 17:35:39 GMT 40.592293 22.950315 38,975 134 475 -64
2019-05-18 17:35:32 GMT 40.603001 22.936083 39,000 134 475 -64
2019-05-18 17:35:29 GMT 40.612656 22.923218 39,000 134 475 -64
2019-05-18 17:35:22 GMT 40.618652 22.915283 39,000 134 475 -128
2019-05-18 17:35:19 GMT 40.623322 22.909119 39,000 134 474 -64
2019-05-18 17:35:12 GMT 40.635681 22.892700 39,025 134 474 -64
2019-05-18 17:35:07 GMT 40.641781 22.884645 39,025 134 474 0
2019-05-18 17:35:00 GMT 40.652298 22.870667 39,025 134 474 0
2019-05-18 17:34:56 GMT 40.658615 22.862244 39,025 134 474 64
2019-05-18 17:34:50 GMT 40.667725 22.850098 39,025 134 473 64
2019-05-18 17:34:46 GMT 40.674088 22.841637 39,000 134 473 64
2019-05-18 17:34:39 GMT 40.684158 22.828186 39,000 134 474 0
2019-05-18 17:34:36 GMT 40.688705 22.822163 39,000 134 474 -64
2019-05-18 17:34:27 GMT 40.704437 22.801147 39,025 134 473 -128
2019-05-18 17:34:16 GMT 40.719616 22.780964 39,050 134 473 -64
2019-05-18 17:34:05 GMT 40.736465 22.758429 39,050 134 473 0
2019-05-18 17:33:58 GMT 40.749023 22.741699 39,050 134 472 64
2019-05-18 17:33:55 GMT 40.751923 22.737766 39,025 134 473 64
2019-05-18 17:33:45 GMT 40.766632 22.718040 39,025 134 472 0
2019-05-18 17:33:35 GMT 40.782761 22.696472 39,025 134 472 -64
2019-05-18 17:33:26 GMT 40.796310 22.678345 39,050 134 470 0
2019-05-18 17:33:23 GMT 40.800941 22.672161 39,050 134 470 0
2019-05-18 17:33:14 GMT 40.814861 22.653496 39,050 134 470 0
2019-05-18 17:33:05 GMT 40.828766 22.634766 39,025 134 470 0
2019-05-18 17:32:55 GMT 40.848053 22.608866 39,025 134 470 64
2019-05-18 17:32:44 GMT 40.860390 22.592323 39,025 134 470 128
2019-05-18 17:32:40 GMT 40.866535 22.584021 39,000 134 470 192
2019-05-18 17:32:33 GMT 40.883385 22.561298 39,000 134 470 64
2019-05-18 17:32:23 GMT 40.893082 22.548279 38,975 134 470 0
2019-05-18 17:32:20 GMT 40.897110 22.542847 39,000 134 468 0
2019-05-18 17:32:12 GMT 40.908524 22.527529 38,975 134 468 64
2019-05-18 17:32:08 GMT 40.915367 22.518290 38,975 134 468 64
2019-05-18 17:32:03 GMT 40.923798 22.506897 38,975 134 468 64
2019-05-18 17:31:58 GMT 40.929661 22.499001 38,975 134 468 64
2019-05-18 17:31:54 GMT 40.937073 22.488953 38,975 134 467 64
2019-05-18 17:31:51 GMT 40.940132 22.484831 38,975 134 467 64
2019-05-18 17:31:41 GMT 40.956520 22.462795 38,975 134 467 0
2019-05-18 17:31:34 GMT 40.966370 22.449463 38,975 134 466 0
2019-05-18 17:31:30 GMT 40.973000 22.440575 38,975 134 466 0
2019-05-18 17:31:27 GMT 40.977631 22.434265 38,975 134 466 0
2019-05-18 17:31:23 GMT 40.982777 22.427279 38,975 134 466 0
2019-05-18 17:31:19 GMT 40.988827 22.419163 38,975 134 466 0
2019-05-18 17:31:15 GMT 40.995342 22.410362 38,975 134 466 0
2019-05-18 17:31:12 GMT 40.999393 22.404806 38,975 134 466 0
2019-05-18 17:31:06 GMT 41.008564 22.392447 38,975 134 466 -64
2019-05-18 17:31:03 GMT 41.013126 22.386204 38,975 134 466 -64
2019-05-18 17:30:58 GMT 41.020809 22.375780 39,000 134 466 -64
2019-05-18 17:30:53 GMT 41.027985 22.366089 39,000 134 466 0
2019-05-18 17:30:47 GMT 41.037003 22.353821 39,000 134 466 0
2019-05-18 17:30:44 GMT 41.042782 22.345942 39,000 134 466 0
2019-05-18 17:30:37 GMT 41.051998 22.333458 39,000 134 466 0
2019-05-18 17:30:33 GMT 41.057922 22.325500 38,975 134 466 0
2019-05-18 17:30:26 GMT 41.068359 22.311340 39,000 134 466 -64
2019-05-18 17:30:23 GMT 41.074108 22.303619 39,000 134 466 -128
2019-05-18 17:30:16 GMT 41.084290 22.289856 39,025 134 466 -64
2019-05-18 17:30:12 GMT 41.089188 22.283203 39,025 134 466 -64
2019-05-18 17:30:06 GMT 41.099758 22.268850 39,025 134 466 -128
2019-05-18 17:30:01 GMT 41.105759 22.260681 39,025 134 466 -128
2019-05-18 17:29:56 GMT 41.114914 22.248291 39,050 134 466 -64
2019-05-18 17:29:50 GMT 41.122879 22.237427 39,050 134 466 -64
2019-05-18 17:29:40 GMT 41.137482 22.217590 39,050 134 467 0
2019-05-18 17:29:35 GMT 41.146404 22.205490 39,050 134 467 64
2019-05-18 17:29:32 GMT 41.149658 22.201050 39,050 134 467 0
2019-05-18 17:29:29 GMT 41.155838 22.192627 39,050 134 467 64
2019-05-18 17:29:22 GMT 41.164562 22.180836 39,050 134 467 64
2019-05-18 17:29:18 GMT 41.170898 22.172119 39,050 134 468 64
2019-05-18 17:29:12 GMT 41.181244 22.158081 39,050 134 467 64
2019-05-18 17:29:07 GMT 41.187836 22.149061 39,025 134 467 0
2019-05-18 17:29:01 GMT 41.196590 22.137388 39,025 135 467 -64
2019-05-18 17:28:56 GMT 41.204361 22.127319 39,025 136 465 0
2019-05-18 17:28:51 GMT 41.212322 22.117414 39,025 137 465 0
2019-05-18 17:28:46 GMT 41.221588 22.106302 39,025 138 465 64
2019-05-18 17:28:40 GMT 41.229733 22.096752 39,025 138 464 64
2019-05-18 17:28:35 GMT 41.239044 22.085829 39,000 138 465 64
2019-05-18 17:28:31 GMT 41.244118 22.079836 39,000 138 465 64
2019-05-18 17:28:24 GMT 41.259979 22.061157 39,000 138 464 0
2019-05-18 17:28:21 GMT 41.259979 22.061157 39,000 138 463 0
2019-05-18 17:28:13 GMT 41.273911 22.044754 39,000 138 463 0
2019-05-18 17:28:10 GMT 41.278755 22.039074 39,000 138 463 0
2019-05-18 17:28:03 GMT 41.290329 22.025391 39,000 138 463 64
2019-05-18 17:28:00 GMT 41.295135 22.019714 39,000 138 463 128
2019-05-18 17:27:52 GMT 41.309479 22.002745 38,975 138 462 256
2019-05-18 17:27:48 GMT 41.314228 21.997126 38,975 138 462 256
2019-05-18 17:27:41 GMT 41.324329 21.985203 38,950 138 463 0
2019-05-18 17:27:38 GMT 41.329834 21.978699 38,950 138 461 0
2019-05-18 17:27:31 GMT 41.340530 21.966040 38,950 138 461 64
2019-05-18 17:27:28 GMT 41.347641 21.957642 38,950 138 461 64
2019-05-18 17:27:20 GMT 41.357613 21.945877 38,950 138 460 0
2019-05-18 17:27:16 GMT 41.363850 21.938574 38,950 138 460 -64
2019-05-18 17:27:10 GMT 41.374466 21.926027 38,950 138 460 0
2019-05-18 17:26:59 GMT 41.391403 21.905989 38,975 138 458 -64
2019-05-18 17:26:53 GMT 41.400467 21.895252 38,950 138 459 0
2019-05-18 17:26:50 GMT 41.407745 21.886639 38,950 138 459 -64
2019-05-18 17:26:38 GMT 41.425735 21.865353 38,950 138 459 -64
2019-05-18 17:26:28 GMT 41.442169 21.845814 38,975 138 458 0
2019-05-18 17:26:24 GMT 41.447021 21.840071 38,975 138 458 0
2019-05-18 17:26:18 GMT 41.457184 21.827961 38,975 138 459 0
2019-05-18 17:26:15 GMT 41.461212 21.823154 38,975 138 459 0
2019-05-18 17:26:06 GMT 41.477188 21.804115 38,975 138 459 -64
2019-05-18 17:25:59 GMT 41.486572 21.792879 39,000 138 460 -64
2019-05-18 17:25:55 GMT 41.493359 21.784866 39,000 138 460 -64
2019-05-18 17:25:44 GMT 41.510632 21.764299 39,000 138 460 0
2019-05-18 17:25:34 GMT 41.527908 21.743629 39,000 138 460 0
2019-05-18 17:25:29 GMT 41.533447 21.737074 39,000 138 460 0
2019-05-18 17:25:24 GMT 41.542419 21.726337 39,000 138 461 0
2019-05-18 17:25:16 GMT 41.554642 21.711731 39,000 138 461 0
2019-05-18 17:25:13 GMT 41.560905 21.704258 39,000 138 461 0
2019-05-18 17:25:04 GMT 41.574455 21.688162 39,025 138 463 0
2019-05-18 17:25:01 GMT 41.577759 21.684265 39,025 138 462 0
2019-05-18 17:24:50 GMT 41.595657 21.662853 39,025 138 463 -64
2019-05-18 17:24:39 GMT 41.612823 21.642380 39,025 138 463 -64
2019-05-18 17:24:30 GMT 41.630219 21.621531 39,025 138 464 64
2019-05-18 17:24:19 GMT 41.647633 21.600718 39,025 138 465 128
2019-05-18 17:24:08 GMT 41.665462 21.579256 39,000 138 465 64
2019-05-18 17:23:59 GMT 41.677002 21.565538 39,000 137 467 0
2019-05-18 17:23:56 GMT 41.683201 21.558113 39,000 138 466 0
2019-05-18 17:23:47 GMT 41.697189 21.541443 39,000 138 467 0
2019-05-18 17:23:44 GMT 41.701263 21.536512 39,000 138 467 -64
2019-05-18 17:23:38 GMT 41.711563 21.524214 39,025 138 467 -64
2019-05-18 17:23:34 GMT 41.718063 21.516413 39,025 138 467 0
2019-05-18 17:23:28 GMT 41.727448 21.505114 39,025 137 467 0
2019-05-18 17:23:24 GMT 41.735386 21.495581 39,025 137 467 0
2019-05-18 17:23:17 GMT 41.744511 21.484594 39,025 137 467 0
2019-05-18 17:23:13 GMT 41.752422 21.475014 39,025 137 468 0
2019-05-18 17:23:06 GMT 41.763222 21.461920 39,025 137 469 -128
2019-05-18 17:23:02 GMT 41.769653 21.454115 39,025 137 469 -128
2019-05-18 17:22:55 GMT 41.780960 21.440458 39,050 137 469 -192
2019-05-18 17:22:52 GMT 41.787338 21.432730 39,050 137 469 -128
2019-05-18 17:22:45 GMT 41.796833 21.421295 39,075 137 468 0
2019-05-18 17:22:40 GMT 41.804234 21.412416 39,075 137 468 64
2019-05-18 17:22:33 GMT 41.815659 21.398621 39,050 138 469 0
2019-05-18 17:22:30 GMT 41.821320 21.391787 39,050 138 469 64
2019-05-18 17:22:25 GMT 41.829437 21.382015 39,050 138 470 0
2019-05-18 17:22:20 GMT 41.838123 21.371601 39,050 138 470 0
2019-05-18 17:22:12 GMT 41.849991 21.357359 39,050 138 470 0
2019-05-18 17:22:08 GMT 41.856583 21.349369 39,050 138 470 64
2019-05-18 17:22:02 GMT 41.865452 21.338772 39,050 138 470 64
2019-05-18 17:21:58 GMT 41.872604 21.330143 39,050 138 470 192
2019-05-18 17:21:51 GMT 41.884277 21.316160 39,025 137 470 64
2019-05-18 17:21:47 GMT 41.890732 21.308357 39,025 137 470 64
2019-05-18 17:21:41 GMT 41.900482 21.296497 39,025 137 470 0
2019-05-18 17:21:37 GMT 41.907906 21.287544 39,025 137 470 0
2019-05-18 17:21:30 GMT 41.918289 21.274961 39,025 137 470 0
2019-05-18 17:21:26 GMT 41.924835 21.267035 39,025 137 469 0
2019-05-18 17:21:22 GMT 41.931137 21.259375 39,025 137 469 0
2019-05-18 17:21:18 GMT 41.936691 21.252552 39,025 137 469 64
2019-05-18 17:21:15 GMT 41.947128 21.239882 39,025 137 467 64
2019-05-18 17:21:08 GMT 41.952923 21.232803 39,025 137 467 0
2019-05-18 17:21:05 GMT 41.959114 21.225203 39,025 137 467 0
2019-05-18 17:21:01 GMT 41.964283 21.218943 39,025 137 467 0
2019-05-18 17:20:53 GMT 41.976334 21.204300 39,025 137 466 0
2019-05-18 17:20:46 GMT 41.987743 21.190519 39,025 137 465 128
2019-05-18 17:20:41 GMT 41.996311 21.180107 39,025 137 465 128
2019-05-18 17:20:35 GMT 42.006413 21.167845 39,025 137 465 128
2019-05-18 17:20:32 GMT 42.010757 21.162601 39,000 137 465 128
2019-05-18 17:20:29 GMT 42.014694 21.157858 39,000 137 465 128
2019-05-18 17:20:22 GMT 42.030804 21.138206 38,975 137 465 64
2019-05-18 17:20:10 GMT 42.045044 21.120966 38,975 137 463 64
2019-05-18 17:20:06 GMT 42.052551 21.111790 38,975 137 463 64
2019-05-18 17:20:01 GMT 42.059898 21.102884 38,975 137 463 64
2019-05-18 17:19:58 GMT 42.063812 21.098120 38,975 137 463 64
2019-05-18 17:19:48 GMT 42.080338 21.077909 38,975 137 462 0
2019-05-18 17:19:40 GMT 42.093277 21.062132 38,975 137 460 -64
2019-05-18 17:19:37 GMT 42.097824 21.056545 38,975 137 460 0
2019-05-18 17:19:27 GMT 42.113949 21.037029 38,975 137 459 0
2019-05-18 17:19:18 GMT 42.128891 21.018826 38,975 136 459 64
2019-05-18 17:19:13 GMT 42.135727 21.010166 39,000 136 459 64
2019-05-18 17:19:07 GMT 42.144745 20.998430 38,975 134 458 0
2019-05-18 17:19:03 GMT 42.151062 20.989880 38,975 134 459 64
2019-05-18 17:18:56 GMT 42.161198 20.975647 39,000 132 459 0
2019-05-18 17:18:50 GMT 42.169346 20.963703 38,975 131 459 0
2019-05-18 17:18:45 GMT 42.176880 20.952051 38,975 130 458 0
2019-05-18 17:18:35 GMT 42.191319 20.928955 39,000 129 457 0
2019-05-18 17:18:25 GMT 42.204254 20.908106 39,000 130 457 0
2019-05-18 17:18:21 GMT 42.209015 20.900492 38,975 130 457 0
2019-05-18 17:18:15 GMT 42.217300 20.887196 38,975 129 456 0
2019-05-18 17:18:06 GMT 42.229843 20.867096 39,000 129 456 64
2019-05-18 17:18:03 GMT 42.234703 20.859268 39,000 129 456 0
2019-05-18 17:17:52 GMT 42.248978 20.836258 39,000 129 455 -64
2019-05-18 17:17:42 GMT 42.262264 20.814877 39,000 129 455 0
2019-05-18 17:17:30 GMT 42.278461 20.788624 39,000 129 455 64
2019-05-18 17:17:22 GMT 42.288891 20.771761 38,975 129 454 64
2019-05-18 17:17:19 GMT 42.292877 20.765347 38,975 129 455 64
2019-05-18 17:17:11 GMT 42.303089 20.748831 38,950 129 452 0
2019-05-18 17:17:07 GMT 42.308395 20.740191 38,950 129 455 0
2019-05-18 17:17:01 GMT 42.316956 20.726332 38,975 129 454 0
2019-05-18 17:16:57 GMT 42.322922 20.716639 38,950 129 454 0
2019-05-18 17:16:49 GMT 42.333256 20.699966 38,975 129 454 -64
2019-05-18 17:16:46 GMT 42.337601 20.692999 38,950 129 453 0
2019-05-18 17:16:38 GMT 42.348267 20.675709 38,975 129 452 0
2019-05-18 17:16:33 GMT 42.354309 20.665970 38,975 129 452 0
2019-05-18 17:16:30 GMT 42.359138 20.658066 38,975 129 452 0
2019-05-18 17:16:24 GMT 42.366215 20.646631 38,975 129 452 0
2019-05-18 17:16:19 GMT 42.372730 20.636156 39,000 129 452 0
2019-05-18 17:16:13 GMT 42.381111 20.622551 38,975 129 452 -64
2019-05-18 17:16:09 GMT 42.386513 20.613800 39,000 129 452 -64
2019-05-18 17:16:05 GMT 42.391911 20.605049 39,000 129 452 -64
2019-05-18 17:16:02 GMT 42.396751 20.597195 39,000 129 452 0
2019-05-18 17:15:59 GMT 42.400429 20.591253 39,000 129 452 64
2019-05-18 17:15:52 GMT 42.409832 20.575987 39,000 129 452 0
2019-05-18 17:15:48 GMT 42.414963 20.567656 39,000 129 452 0
2019-05-18 17:15:42 GMT 42.424301 20.552423 39,000 129 452 -64
2019-05-18 17:15:38 GMT 42.428360 20.545902 39,000 129 451 -64
2019-05-18 17:15:31 GMT 42.438904 20.528641 39,025 129 452 -64
2019-05-18 17:15:27 GMT 42.443256 20.521503 39,025 129 452 -64
2019-05-18 17:15:20 GMT 42.453140 20.505358 39,025 129 452 0
2019-05-18 17:15:16 GMT 42.457397 20.498428 39,025 129 451 -64
2019-05-18 17:15:10 GMT 42.465363 20.485506 39,025 129 452 0
2019-05-18 17:15:05 GMT 42.471981 20.474684 39,025 129 452 64
2019-05-18 17:15:00 GMT 42.479416 20.462536 39,025 129 452 0
2019-05-18 17:14:56 GMT 42.484497 20.454170 39,025 129 452 0
2019-05-18 17:14:48 GMT 42.494568 20.437691 39,025 129 452 0
2019-05-18 17:14:45 GMT 42.498608 20.431057 39,025 129 453 0
2019-05-18 17:14:38 GMT 42.512878 20.407665 39,025 129 453 0
2019-05-18 17:14:34 GMT 42.512878 20.407665 39,025 129 453 -64
2019-05-18 17:14:27 GMT 42.522816 20.391455 39,050 129 453 0
2019-05-18 17:14:24 GMT 42.526215 20.385834 39,050 129 453 0
2019-05-18 17:14:16 GMT 42.537434 20.367502 39,025 129 453 0
2019-05-18 17:14:13 GMT 42.541996 20.359964 39,025 129 453 0
2019-05-18 17:14:07 GMT 42.549816 20.347256 39,025 129 453 64
2019-05-18 17:14:02 GMT 42.556427 20.336395 39,025 129 453 64
2019-05-18 17:13:56 GMT 42.563873 20.324270 39,025 129 454 64
2019-05-18 17:13:53 GMT 42.568390 20.316851 39,025 129 453 64
2019-05-18 17:13:50 GMT 42.572159 20.310724 39,025 129 454 64
2019-05-18 17:13:46 GMT 42.577698 20.301674 39,025 129 453 64
2019-05-18 17:13:42 GMT 42.582264 20.294239 39,025 129 453 64
2019-05-18 17:13:35 GMT 42.591705 20.278828 39,025 129 453 64
2019-05-18 17:13:31 GMT 42.598297 20.268089 39,000 129 453 128
2019-05-18 17:13:24 GMT 42.606812 20.254045 39,000 129 453 128
2019-05-18 17:13:19 GMT 42.613129 20.243683 39,000 129 454 64
2019-05-18 17:13:15 GMT 42.618526 20.234837 38,975 129 454 64
2019-05-18 17:13:11 GMT 42.633286 20.210373 38,950 129 451 64
2019-05-18 17:13:04 GMT 42.633286 20.210373 38,975 129 453 64
2019-05-18 17:13:01 GMT 42.637939 20.202608 38,975 129 453 64
2019-05-18 17:12:51 GMT 42.651161 20.180862 38,975 129 453 64
2019-05-18 17:12:42 GMT 42.663078 20.161253 38,975 129 452 64
2019-05-18 17:12:33 GMT 42.676483 20.139153 38,950 129 451 64
2019-05-18 17:12:29 GMT 42.690582 20.115904 38,950 129 451 64
2019-05-18 17:12:21 GMT 42.690582 20.115904 38,950 129 451 0
2019-05-18 17:12:18 GMT 42.695251 20.108227 38,950 129 451 0
2019-05-18 17:12:15 GMT 42.700653 20.099361 38,950 129 451 0
2019-05-18 17:12:10 GMT 42.705917 20.090624 38,950 129 451 0
2019-05-18 17:12:07 GMT 42.709538 20.084604 38,950 129 451 0
2019-05-18 17:12:04 GMT 42.713516 20.078014 38,950 129 450 -64
2019-05-18 17:12:00 GMT 42.718597 20.069588 38,950 129 450 -128
2019-05-18 17:11:53 GMT 42.728439 20.053295 38,975 130 449 -128
2019-05-18 17:11:49 GMT 42.732513 20.046679 38,975 130 449 -128
2019-05-18 17:11:42 GMT 42.744598 20.027950 39,000 132 448 -64
2019-05-18 17:11:39 GMT 42.746750 20.024769 39,000 133 447 -128
2019-05-18 17:11:32 GMT 42.758560 20.007790 39,000 134 447 -64
2019-05-18 17:11:27 GMT 42.763771 20.000610 39,000 135 446 0
2019-05-18 17:11:21 GMT 42.774033 19.986877 39,000 135 446 0
2019-05-18 17:11:15 GMT 42.781998 19.976454 39,000 135 446 0
2019-05-18 17:11:10 GMT 42.790649 19.965031 39,000 135 447 0
2019-05-18 17:11:07 GMT 42.793518 19.961264 39,000 135 447 0
2019-05-18 17:11:01 GMT 42.801819 19.950422 39,000 136 446 -64
2019-05-18 17:10:56 GMT 42.810043 19.939663 39,000 136 446 -64
2019-05-18 17:10:48 GMT 42.825729 19.919193 39,025 136 446 0
2019-05-18 17:10:35 GMT 42.841141 19.899052 39,025 136 447 0
2019-05-18 17:10:22 GMT 42.861065 19.873156 39,000 136 448 64
2019-05-18 17:10:12 GMT 42.875839 19.853891 39,000 135 449 128
2019-05-18 17:10:02 GMT 42.890949 19.833920 39,000 135 450 -64
2019-05-18 17:09:51 GMT 42.906780 19.812992 39,000 135 449 -64
2019-05-18 17:09:43 GMT 42.918602 19.797363 39,025 135 449 -64
2019-05-18 17:09:40 GMT 42.923260 19.791283 39,025 135 449 -64
2019-05-18 17:09:29 GMT 42.939365 19.770027 39,025 135 449 0
2019-05-18 17:09:18 GMT 42.955845 19.748383 39,025 135 449 0
2019-05-18 17:09:08 GMT 42.971905 19.727196 39,025 135 449 64
2019-05-18 17:08:56 GMT 42.988571 19.705221 39,025 135 449 64
2019-05-18 17:08:45 GMT 43.005936 19.682262 39,025 135 449 0
2019-05-18 17:08:33 GMT 43.023926 19.658501 39,025 135 449 -64
2019-05-18 17:08:22 GMT 43.040382 19.636753 39,025 135 449 0
2019-05-18 17:08:11 GMT 43.056305 19.615696 39,050 135 449 0
2019-05-18 17:08:02 GMT 43.069710 19.597910 39,025 135 449 0
2019-05-18 17:07:59 GMT 43.073639 19.592775 39,025 135 449 -64
2019-05-18 17:07:51 GMT 43.085724 19.576721 39,050 135 449 0
2019-05-18 17:07:48 GMT 43.090210 19.570738 39,050 135 449 0
2019-05-18 17:07:37 GMT 43.106232 19.549467 39,050 135 449 64
2019-05-18 17:07:28 GMT 43.120239 19.530882 39,025 135 449 64
2019-05-18 17:07:25 GMT 43.123852 19.526106 39,025 135 449 0
2019-05-18 17:07:21 GMT 43.130604 19.517015 39,050 135 448 0
2019-05-18 17:07:15 GMT 43.139400 19.505375 39,025 135 448 0
2019-05-18 17:07:04 GMT 43.155899 19.483358 39,025 135 448 0
2019-05-18 17:06:53 GMT 43.172241 19.461578 39,025 135 447 64
2019-05-18 17:06:41 GMT 43.189590 19.438456 39,025 135 446 0
2019-05-18 17:06:30 GMT 43.206482 19.415909 39,025 135 445 128
2019-05-18 17:06:19 GMT 43.222542 19.394531 38,975 135 446 192
2019-05-18 17:06:08 GMT 43.239029 19.372538 38,950 135 446 0
2019-05-18 17:06:00 GMT 43.250336 19.357399 38,975 135 446 -64
2019-05-18 17:05:56 GMT 43.255920 19.349861 38,975 135 446 -64
2019-05-18 17:05:46 GMT 43.271484 19.328911 39,000 135 444 0
2019-05-18 17:05:35 GMT 43.287735 19.307194 38,975 135 444 64
2019-05-18 17:05:27 GMT 43.298935 19.292253 38,975 135 444 64
2019-05-18 17:05:23 GMT 43.304195 19.285191 38,975 135 444 64
2019-05-18 17:05:12 GMT 43.320766 19.262957 38,975 135 443 0
2019-05-18 17:05:03 GMT 43.333755 19.245562 38,975 135 442 0
2019-05-18 17:05:00 GMT 43.338085 19.239742 38,975 135 442 0
2019-05-18 17:04:48 GMT 43.355122 19.216787 38,975 135 441 64
2019-05-18 17:04:45 GMT 43.360104 19.210052 38,975 135 441 64
2019-05-18 17:04:38 GMT 43.369740 19.197104 38,975 135 441 0
2019-05-18 17:04:32 GMT 43.378464 19.185387 38,975 135 440 0
2019-05-18 17:04:27 GMT 43.385849 19.175459 38,975 135 440 0
2019-05-18 17:04:15 GMT 43.403732 19.151405 38,975 135 440 0
2019-05-18 17:04:08 GMT 43.414215 19.137224 38,975 135 441 0
2019-05-18 17:04:04 GMT 43.419273 19.130402 38,975 135 441 0
2019-05-18 17:03:59 GMT 43.436325 19.107460 38,975 135 440 0
2019-05-18 17:03:53 GMT 43.436325 19.107460 38,975 135 441 0
2019-05-18 17:03:44 GMT 43.448685 19.090790 38,975 135 441 0
2019-05-18 17:03:41 GMT 43.453629 19.084082 38,975 135 441 0
2019-05-18 17:03:33 GMT 43.469696 19.062429 38,975 135 441 0
2019-05-18 17:03:23 GMT 43.479977 19.048527 38,975 135 441 0
2019-05-18 17:03:12 GMT 43.495106 19.028059 38,975 135 442 0
2019-05-18 17:03:07 GMT 43.502274 19.018314 39,000 135 442 64
2019-05-18 17:02:59 GMT 43.516052 18.999613 38,975 135 442 64
2019-05-18 17:02:51 GMT 43.526230 18.985844 38,975 135 443 0
2019-05-18 17:02:44 GMT 43.536259 18.972277 38,975 135 444 -64
2019-05-18 17:02:40 GMT 43.541748 18.964830 38,975 135 444 -64
2019-05-18 17:02:35 GMT 43.557312 18.943815 38,975 135 444 -64
2019-05-18 17:02:30 GMT 43.557312 18.943815 39,025 135 445 64
2019-05-18 17:02:19 GMT 43.572556 18.922993 39,000 135 444 -64
2019-05-18 17:02:12 GMT 43.582809 18.909067 39,025 135 444 0
2019-05-18 17:02:08 GMT 43.589329 18.900146 39,000 135 444 -64
2019-05-18 17:01:59 GMT 43.601898 18.883078 39,025 135 444 0
2019-05-18 17:01:56 GMT 43.606876 18.876211 39,025 135 444 0
2019-05-18 17:01:49 GMT 43.616684 18.862823 39,025 135 445 0
2019-05-18 17:01:46 GMT 43.621033 18.856882 39,025 135 445 0
2019-05-18 17:01:35 GMT 43.636436 18.835733 39,025 135 445 0
2019-05-18 17:01:28 GMT 43.646957 18.821411 39,050 135 445 0
2019-05-18 17:01:25 GMT 43.651428 18.815365 39,025 135 445 64
2019-05-18 17:01:17 GMT 43.663330 18.799141 39,025 135 445 128
2019-05-18 17:01:14 GMT 43.667862 18.792965 39,025 135 447 -64
2019-05-18 17:01:04 GMT 43.682480 18.773149 39,025 135 446 0
2019-05-18 17:01:01 GMT 43.686947 18.767002 39,025 135 447 -64
2019-05-18 17:00:53 GMT 43.699142 18.750393 39,050 135 447 -64
2019-05-18 17:00:43 GMT 43.713993 18.729923 39,050 135 447 -64
2019-05-18 17:00:31 GMT 43.730896 18.706842 39,050 135 447 0
2019-05-18 17:00:21 GMT 43.745975 18.686239 39,050 135 448 0
2019-05-18 17:00:18 GMT 43.750351 18.680288 39,050 135 448 0
2019-05-18 17:00:11 GMT 43.760422 18.666410 39,050 135 448 0
2019-05-18 17:00:07 GMT 43.765778 18.659128 39,050 135 448 0
2019-05-18 17:00:00 GMT 43.776627 18.644245 39,050 135 448 64
2019-05-18 16:59:56 GMT 43.781681 18.637325 39,050 135 448 64
2019-05-18 16:59:49 GMT 43.792145 18.622976 39,050 135 449 64
2019-05-18 16:59:38 GMT 43.809357 18.599279 39,050 135 449 0
2019-05-18 16:59:33 GMT 43.815712 18.590502 39,050 135 449 0
2019-05-18 16:59:30 GMT 43.822693 18.580889 39,050 135 449 -64
2019-05-18 16:59:23 GMT 43.831448 18.568922 39,050 135 449 -64
2019-05-18 16:59:19 GMT 43.837189 18.561018 39,050 135 449 -64
2019-05-18 16:59:15 GMT 43.843178 18.552835 39,075 135 449 -64
2019-05-18 16:59:08 GMT 43.853649 18.538382 39,050 135 449 192
2019-05-18 16:59:04 GMT 43.858063 18.532339 39,050 135 449 192
2019-05-18 16:58:56 GMT 43.875504 18.508322 39,025 135 449 192
2019-05-18 16:58:53 GMT 43.875504 18.508322 39,025 135 449 128
2019-05-18 16:58:45 GMT 43.887039 18.492353 39,000 134 450 0
2019-05-18 16:58:41 GMT 43.893127 18.483921 39,000 134 450 0
2019-05-18 16:58:34 GMT 43.903275 18.469849 39,025 134 449 0
2019-05-18 16:58:31 GMT 43.907604 18.463833 39,025 135 448 128
2019-05-18 16:58:23 GMT 43.919617 18.447222 39,000 135 448 128
2019-05-18 16:58:19 GMT 43.924576 18.440424 39,000 135 447 128
2019-05-18 16:58:12 GMT 43.934509 18.426756 38,975 135 448 128
2019-05-18 16:58:07 GMT 43.942474 18.415705 38,975 135 445 0
2019-05-18 16:58:02 GMT 43.949829 18.405500 38,975 134 447 0
2019-05-18 16:57:55 GMT 43.959961 18.391434 38,975 135 446 0
2019-05-18 16:57:52 GMT 43.964352 18.385359 38,975 135 446 0
2019-05-18 16:57:47 GMT 43.971569 18.375353 38,975 135 445 0
2019-05-18 16:57:42 GMT 43.979141 18.364861 38,975 134 446 0
2019-05-18 16:57:38 GMT 43.984837 18.356977 38,975 135 445 0
2019-05-18 16:57:31 GMT 43.994705 18.343271 38,975 134 444 64
2019-05-18 16:57:21 GMT 44.009136 18.323233 38,950 134 442 64
2019-05-18 16:57:14 GMT 44.021797 18.305641 38,975 134 444 -64
2019-05-18 16:57:11 GMT 44.025570 18.300344 38,975 134 442 64
2019-05-18 16:57:01 GMT 44.038879 18.281824 39,000 134 443 -128
2019-05-18 16:56:48 GMT 44.056805 18.256859 39,000 134 441 192
2019-05-18 16:56:41 GMT 44.068359 18.240753 38,950 135 442 256
2019-05-18 16:56:30 GMT 44.082596 18.220953 38,950 134 443 -64
2019-05-18 16:56:22 GMT 44.094910 18.203835 38,950 134 443 -64
2019-05-18 16:56:17 GMT 44.101776 18.194254 38,950 134 442 0
2019-05-18 16:56:14 GMT 44.106079 18.188250 38,950 134 442 64
2019-05-18 16:56:09 GMT 44.113132 18.178385 38,950 134 442 0
2019-05-18 16:55:59 GMT 44.128555 18.156822 38,950 134 442 0
2019-05-18 16:55:55 GMT 44.133476 18.149937 38,950 134 441 -64
2019-05-18 16:55:47 GMT 44.145035 18.133764 38,950 134 441 -64
2019-05-18 16:55:44 GMT 44.149864 18.126919 38,975 134 441 -128
2019-05-18 16:55:32 GMT 44.166622 18.103441 38,975 134 441 -128
2019-05-18 16:55:24 GMT 44.177608 18.088074 38,975 134 441 -64
2019-05-18 16:55:20 GMT 44.183624 18.079664 38,975 134 442 0
2019-05-18 16:55:10 GMT 44.197769 18.059889 38,975 134 442 -64
2019-05-18 16:55:03 GMT 44.209854 18.042952 39,000 134 444 -64
2019-05-18 16:54:54 GMT 44.221645 18.026421 39,000 134 444 -64
2019-05-18 16:54:50 GMT 44.227512 18.018181 39,000 134 444 -128
2019-05-18 16:54:46 GMT 44.233383 18.009993 39,025 134 445 -128
2019-05-18 16:54:40 GMT 44.241154 17.999157 39,025 134 445 -128
2019-05-18 16:54:33 GMT 44.252090 17.983814 39,050 134 446 0
2019-05-18 16:54:30 GMT 44.256912 17.977098 39,050 134 446 0
2019-05-18 16:54:24 GMT 44.264240 17.966734 39,050 134 446 0
2019-05-18 16:54:14 GMT 44.280022 17.944492 39,050 134 448 -64
2019-05-18 16:54:06 GMT 44.296143 17.921841 39,050 134 449 0
2019-05-18 16:54:03 GMT 44.296143 17.921841 39,050 134 449 -64
2019-05-18 16:53:59 GMT 44.301636 17.914059 39,075 134 449 0
2019-05-18 16:53:52 GMT 44.317123 17.892307 39,050 134 451 64
2019-05-18 16:53:49 GMT 44.317123 17.892307 39,050 134 451 64
2019-05-18 16:53:41 GMT 44.327957 17.876980 39,050 134 452 64
2019-05-18 16:53:37 GMT 44.333679 17.868870 39,050 134 452 64
2019-05-18 16:53:30 GMT 44.343288 17.855330 39,025 134 453 128
2019-05-18 16:53:26 GMT 44.349426 17.846636 39,025 134 453 128
2019-05-18 16:53:15 GMT 44.365959 17.823240 39,025 134 454 0
2019-05-18 16:53:08 GMT 44.376106 17.808971 39,025 134 454 128
2019-05-18 16:53:05 GMT 44.380692 17.802494 39,025 134 454 128
2019-05-18 16:52:57 GMT 44.392822 17.785360 39,025 134 454 0
2019-05-18 16:52:54 GMT 44.396591 17.780031 39,000 134 454 0
2019-05-18 16:52:47 GMT 44.407928 17.763977 39,025 134 455 0
2019-05-18 16:52:41 GMT 44.418365 17.749067 39,000 134 455 64
2019-05-18 16:52:36 GMT 44.433552 17.727512 39,000 134 455 -64
2019-05-18 16:52:25 GMT 44.446728 17.708822 39,000 134 455 64
2019-05-18 16:52:20 GMT 44.446728 17.708822 39,000 134 455 64
2019-05-18 16:52:12 GMT 44.459290 17.690931 39,000 134 455 64
2019-05-18 16:52:03 GMT 44.473755 17.670462 38,975 134 455 64
2019-05-18 16:51:50 GMT 44.490601 17.646463 38,975 134 455 0
2019-05-18 16:51:41 GMT 44.504593 17.626558 38,975 134 454 0
2019-05-18 16:51:38 GMT 44.522049 17.601639 39,000 134 453 0
2019-05-18 16:51:29 GMT 44.522049 17.601639 38,975 134 454 0
2019-05-18 16:51:16 GMT 44.540623 17.575109 38,975 134 453 -64
2019-05-18 16:51:07 GMT 44.554321 17.555630 38,975 134 453 -128
2019-05-18 16:51:04 GMT 44.559242 17.548582 39,000 134 453 0
2019-05-18 16:50:57 GMT 44.569717 17.533644 39,025 134 453 0
2019-05-18 16:50:53 GMT 44.575397 17.525604 39,000 134 451 0
2019-05-18 16:50:46 GMT 44.586136 17.510244 39,000 134 453 0
2019-05-18 16:50:34 GMT 44.604214 17.484472 39,000 134 453 0
2019-05-18 16:50:31 GMT 44.609333 17.477104 39,025 134 451 0
2019-05-18 16:50:24 GMT 44.617714 17.465113 39,025 134 453 0
2019-05-18 16:50:12 GMT 44.636765 17.437788 39,025 134 453 64
2019-05-18 16:50:03 GMT 44.648533 17.420834 39,025 134 453 64
2019-05-18 16:49:50 GMT 44.667568 17.393501 39,000 134 453 64
2019-05-18 16:49:45 GMT 44.674988 17.382856 39,000 134 453 64
2019-05-18 16:49:41 GMT 44.680325 17.375214 39,000 134 453 64
2019-05-18 16:49:34 GMT 44.692711 17.357327 38,975 134 454 64
2019-05-18 16:49:30 GMT 44.696411 17.351990 38,975 134 454 64
2019-05-18 16:49:18 GMT 44.714355 17.325962 38,975 134 454 64
2019-05-18 16:49:11 GMT 44.724876 17.310701 38,975 134 454 64
2019-05-18 16:49:08 GMT 44.729095 17.304644 38,975 134 454 0
2019-05-18 16:49:00 GMT 44.739716 17.289343 38,950 134 453 0
2019-05-18 16:48:56 GMT 44.746990 17.278881 38,975 134 453 -64
2019-05-18 16:48:52 GMT 44.752110 17.271513 38,950 134 453 0
2019-05-18 16:48:45 GMT 44.761688 17.257755 38,975 134 453 -64
2019-05-18 16:48:42 GMT 44.767284 17.249741 38,975 134 453 -128
2019-05-18 16:48:34 GMT 44.778736 17.233261 38,975 134 453 0
2019-05-18 16:48:31 GMT 44.784279 17.225290 39,000 134 453 0
2019-05-18 16:48:24 GMT 44.793274 17.212240 38,975 134 453 0
2019-05-18 16:48:20 GMT 44.799271 17.203609 38,975 134 454 -64
2019-05-18 16:48:13 GMT 44.808380 17.190399 39,000 134 454 -64
2019-05-18 16:48:09 GMT 44.815048 17.180674 39,000 134 453 -64
2019-05-18 16:48:02 GMT 44.825958 17.164894 39,000 134 453 -64
2019-05-18 16:47:59 GMT 44.829433 17.159908 39,000 134 454 -64
2019-05-18 16:47:52 GMT 44.840370 17.144032 39,000 134 453 0
2019-05-18 16:47:41 GMT 44.858002 17.118530 39,025 134 454 0
2019-05-18 16:47:38 GMT 44.861832 17.112947 39,025 134 454 -64
2019-05-18 16:47:30 GMT 44.873657 17.095798 39,025 134 454 0
2019-05-18 16:47:22 GMT 44.883911 17.080929 39,025 134 454 -64
2019-05-18 16:47:19 GMT 44.888260 17.074520 39,025 134 454 -64
2019-05-18 16:47:11 GMT 44.898880 17.059086 39,050 134 454 -64
2019-05-18 16:47:05 GMT 44.908768 17.044701 39,050 134 454 -64
2019-05-18 16:46:59 GMT 44.917370 17.032225 39,025 133 454 0
2019-05-18 16:46:56 GMT 44.921997 17.025473 39,025 133 455 0
2019-05-18 16:46:46 GMT 44.937241 17.003174 39,025 133 455 0
2019-05-18 16:46:37 GMT 44.951305 16.982653 39,025 134 456 0
2019-05-18 16:46:28 GMT 44.962990 16.965570 39,050 134 456 -64
2019-05-18 16:46:23 GMT 44.970383 16.954847 39,025 134 456 0
2019-05-18 16:46:15 GMT 44.981518 16.938574 39,050 133 456 0
2019-05-18 16:46:07 GMT 44.992832 16.922028 39,050 134 456 64
2019-05-18 16:46:03 GMT 45.001099 16.909986 39,025 134 456 64
2019-05-18 16:45:53 GMT 45.013367 16.892002 39,025 133 456 64
2019-05-18 16:45:42 GMT 45.029251 16.868788 39,025 133 456 64
2019-05-18 16:45:37 GMT 45.037720 16.856361 39,025 133 455 0
2019-05-18 16:45:31 GMT 45.046318 16.843782 39,025 134 456 0
2019-05-18 16:45:24 GMT 45.055351 16.830519 39,025 133 455 0
2019-05-18 16:45:19 GMT 45.063995 16.817844 39,025 133 455 0
2019-05-18 16:45:12 GMT 45.072948 16.804794 39,025 133 454 64
2019-05-18 16:45:08 GMT 45.078690 16.796394 39,025 133 454 64
2019-05-18 16:45:05 GMT 45.084305 16.788115 39,025 133 454 64
2019-05-18 16:45:02 GMT 45.088715 16.781616 39,000 133 454 0
2019-05-18 16:44:57 GMT 45.094780 16.772707 39,000 133 454 -64
2019-05-18 16:44:54 GMT 45.099884 16.765268 39,025 133 454 -64
2019-05-18 16:44:49 GMT 45.107304 16.754351 39,025 133 453 64
2019-05-18 16:44:41 GMT 45.119064 16.737082 39,025 133 453 0
2019-05-18 16:44:37 GMT 45.126251 16.726488 39,000 133 451 64
2019-05-18 16:44:33 GMT 45.130646 16.720015 39,025 133 453 128
2019-05-18 16:44:27 GMT 45.139145 16.707525 39,025 133 452 64
2019-05-18 16:44:24 GMT 45.143463 16.701115 39,000 133 452 64
2019-05-18 16:44:16 GMT 45.155205 16.683744 39,000 133 452 0
2019-05-18 16:44:13 GMT 45.159630 16.677246 39,000 133 452 0
2019-05-18 16:44:08 GMT 45.166889 16.666462 39,000 133 452 0
2019-05-18 16:44:05 GMT 45.172714 16.657888 39,000 133 451 0
2019-05-18 16:43:59 GMT 45.178902 16.648775 39,000 133 451 0
2019-05-18 16:43:52 GMT 45.189514 16.633104 39,000 133 451 0
2019-05-18 16:43:42 GMT 45.204037 16.611595 39,000 133 450 0
2019-05-18 16:43:31 GMT 45.219353 16.588886 39,000 133 449 64
2019-05-18 16:43:20 GMT 45.235184 16.565372 39,000 133 448 64
2019-05-18 16:43:15 GMT 45.241840 16.555527 39,000 133 448 64
2019-05-18 16:43:12 GMT 45.246635 16.548426 39,000 133 447 0
2019-05-18 16:43:05 GMT 45.256119 16.534424 38,975 133 447 64
2019-05-18 16:43:02 GMT 45.261612 16.526316 39,000 133 447 0
2019-05-18 16:42:59 GMT 45.265137 16.521149 38,975 133 446 0
2019-05-18 16:42:53 GMT 45.275940 16.505192 38,975 133 446 0
2019-05-18 16:42:49 GMT 45.279778 16.499521 39,000 133 446 -64
2019-05-18 16:42:46 GMT 45.284637 16.492374 39,000 133 446 0
2019-05-18 16:42:38 GMT 45.295609 16.476076 39,000 133 446 -64
2019-05-18 16:42:30 GMT 45.307526 16.458389 39,000 133 444 0
2019-05-18 16:42:27 GMT 45.311153 16.452965 39,000 133 444 64
2019-05-18 16:42:22 GMT 45.318283 16.442413 39,000 133 444 64
2019-05-18 16:42:19 GMT 45.323074 16.435280 39,000 133 444 64
2019-05-18 16:42:16 GMT 45.326611 16.430054 39,000 133 444 64
2019-05-18 16:42:09 GMT 45.336777 16.414948 39,000 133 443 64
2019-05-18 16:42:06 GMT 45.340942 16.408735 39,000 133 442 64
2019-05-18 16:41:58 GMT 45.352432 16.391602 38,975 133 443 0
2019-05-18 16:41:54 GMT 45.357845 16.383495 39,000 133 443 0
2019-05-18 16:41:48 GMT 45.366272 16.370901 39,000 133 443 0
2019-05-18 16:41:44 GMT 45.371658 16.362762 39,000 133 443 0
2019-05-18 16:41:37 GMT 45.381729 16.347723 39,000 133 442 64
2019-05-18 16:41:34 GMT 45.385803 16.341640 38,975 133 442 64
2019-05-18 16:41:31 GMT 45.392204 16.332048 38,975 133 442 64
2019-05-18 16:41:28 GMT 45.394180 16.329084 38,975 133 441 0
2019-05-18 16:41:23 GMT 45.401733 16.317837 38,975 133 442 64
2019-05-18 16:41:19 GMT 45.409195 16.306725 38,975 133 442 64
2019-05-18 16:41:12 GMT 45.416428 16.295864 38,975 133 442 0
2019-05-18 16:41:07 GMT 45.423615 16.285139 38,975 133 442 -64
2019-05-18 16:41:03 GMT 45.430344 16.275068 38,975 133 441 -64
2019-05-18 16:41:00 GMT 45.433262 16.270685 38,975 133 441 -64
2019-05-18 16:40:57 GMT 45.437622 16.264082 38,975 133 440 0
2019-05-18 16:40:51 GMT 45.452721 16.241476 39,000 133 440 -64
2019-05-18 16:40:47 GMT 45.452721 16.241476 39,000 133 440 0
2019-05-18 16:40:41 GMT 45.464172 16.224321 39,000 133 440 -64
2019-05-18 16:40:38 GMT 45.468292 16.218109 39,000 133 439 0
2019-05-18 16:40:29 GMT 45.477814 16.203854 39,000 133 439 0
2019-05-18 16:40:26 GMT 45.481304 16.198671 39,000 133 439 0
2019-05-18 16:40:19 GMT 45.493221 16.180784 39,000 133 439 0
2019-05-18 16:40:13 GMT 45.500156 16.170401 39,000 133 439 0
2019-05-18 16:40:08 GMT 45.506256 16.161224 39,000 133 439 -64
2019-05-18 16:40:05 GMT 45.510406 16.155003 39,000 133 439 -64
2019-05-18 16:39:56 GMT 45.522583 16.136759 39,025 133 439 -64
2019-05-18 16:39:53 GMT 45.537140 16.114916 39,025 133 439 0
2019-05-18 16:39:47 GMT 45.537140 16.114916 39,025 133 439 -64
2019-05-18 16:39:44 GMT 45.539867 16.110781 39,025 133 439 0
2019-05-18 16:39:39 GMT 45.548996 16.097115 39,025 133 440 -64
2019-05-18 16:39:33 GMT 45.555084 16.088072 39,025 133 439 64
2019-05-18 16:39:29 GMT 45.568542 16.067917 39,025 133 440 -64
2019-05-18 16:39:24 GMT 45.581909 16.047743 39,025 133 440 -64
2019-05-18 16:39:15 GMT 45.581909 16.047743 39,025 133 440 -64
2019-05-18 16:39:09 GMT 45.588745 16.037430 39,025 132 440 0
2019-05-18 16:39:04 GMT 45.596565 16.025482 39,025 133 439 -64
2019-05-18 16:38:56 GMT 45.607132 16.009424 39,025 133 439 64
2019-05-18 16:38:53 GMT 45.611801 16.002256 39,025 133 440 64
2019-05-18 16:38:46 GMT 45.621597 15.987452 39,025 133 439 64
2019-05-18 16:38:42 GMT 45.628464 15.977002 39,025 133 439 64
2019-05-18 16:38:37 GMT 45.633434 15.969589 39,025 133 440 64
2019-05-18 16:38:31 GMT 45.641304 15.957710 39,000 133 440 128
2019-05-18 16:38:22 GMT 45.655472 15.936339 39,000 133 440 64
2019-05-18 16:38:14 GMT 45.665791 15.920700 39,000 133 440 64
2019-05-18 16:38:11 GMT 45.670074 15.914165 38,975 133 440 64
2019-05-18 16:38:05 GMT 45.679779 15.899494 38,975 133 440 64
2019-05-18 16:38:01 GMT 45.684586 15.892193 38,975 133 440 64
2019-05-18 16:37:57 GMT 45.691021 15.882454 38,975 133 439 0
2019-05-18 16:37:49 GMT 45.700100 15.868584 38,975 133 440 0
2019-05-18 16:37:42 GMT 45.712624 15.849495 38,975 133 439 0
2019-05-18 16:37:38 GMT 45.715229 15.845512 38,975 133 439 0
2019-05-18 16:37:31 GMT 45.725704 15.829582 38,975 132 438 0
2019-05-18 16:37:27 GMT 45.730267 15.822647 38,975 133 437 64
2019-05-18 16:37:24 GMT 45.735199 15.815163 38,975 133 438 -64
2019-05-18 16:37:18 GMT 45.743591 15.802426 38,975 133 438 0
2019-05-18 16:37:15 GMT 45.747677 15.796143 38,975 133 438 -64
2019-05-18 16:37:10 GMT 45.753799 15.786818 38,975 132 438 0
2019-05-18 16:37:06 GMT 45.760429 15.776711 38,975 133 437 0
2019-05-18 16:37:02 GMT 45.771416 15.759888 38,975 132 438 0
2019-05-18 16:36:58 GMT 45.771416 15.759888 38,975 132 438 0
2019-05-18 16:36:55 GMT 45.779331 15.747734 38,975 132 438 -64
2019-05-18 16:36:47 GMT 45.787338 15.735443 38,975 132 438 0
2019-05-18 16:36:44 GMT 45.797161 15.720200 38,975 133 437 64
2019-05-18 16:36:33 GMT 45.805820 15.706810 39,000 133 437 64
2019-05-18 16:36:28 GMT 45.812073 15.697118 39,000 133 437 0
2019-05-18 16:36:25 GMT 45.817017 15.689414 39,000 133 437 0
2019-05-18 16:36:20 GMT 45.824532 15.677971 39,000 134 437 64
2019-05-18 16:36:15 GMT 45.830490 15.669113 39,000 133 437 64
2019-05-18 16:36:11 GMT 45.836823 15.659775 39,000 134 437 0
2019-05-18 16:36:07 GMT 45.842224 15.651947 39,000 134 438 64
2019-05-18 16:36:01 GMT 45.849625 15.641235 38,975 134 438 64
2019-05-18 16:35:55 GMT 45.860611 15.625374 38,975 134 438 0
2019-05-18 16:35:51 GMT 45.864899 15.619142 38,975 134 438 0
2019-05-18 16:35:42 GMT 45.876617 15.602127 39,000 134 439 0
2019-05-18 16:35:39 GMT 45.882477 15.593686 39,000 134 438 0
2019-05-18 16:35:30 GMT 45.896412 15.573326 38,975 134 438 0
2019-05-18 16:35:22 GMT 45.906231 15.558907 38,975 134 438 0
2019-05-18 16:35:19 GMT 45.911076 15.551903 38,975 134 438 -64
2019-05-18 16:35:11 GMT 45.921844 15.536209 39,000 134 438 -64
2019-05-18 16:35:07 GMT 45.927658 15.527701 39,000 134 438 0
2019-05-18 16:35:01 GMT 45.937042 15.514035 39,000 134 438 -64
2019-05-18 16:34:56 GMT 45.942673 15.505795 39,000 134 439 -64
2019-05-18 16:34:49 GMT 45.952690 15.491272 39,000 134 438 -64
2019-05-18 16:34:45 GMT 45.958466 15.482818 39,000 134 438 -64
2019-05-18 16:34:40 GMT 45.966156 15.471564 39,025 134 439 0
2019-05-18 16:34:33 GMT 45.974850 15.458862 39,025 134 439 0
2019-05-18 16:34:29 GMT 45.981125 15.449658 39,025 134 439 0
2019-05-18 16:34:19 GMT 46.006027 15.413282 39,025 134 439 64
2019-05-18 16:34:12 GMT 46.006027 15.413282 39,000 134 439 -64
2019-05-18 16:34:06 GMT 46.013397 15.402489 39,025 134 439 64
2019-05-18 16:34:02 GMT 46.019897 15.392985 39,025 134 439 0
2019-05-18 16:33:58 GMT 46.026215 15.383673 39,025 134 439 0
2019-05-18 16:33:55 GMT 46.029007 15.379520 39,025 134 439 64
2019-05-18 16:33:52 GMT 46.033951 15.372352 39,025 134 439 64
2019-05-18 16:33:47 GMT 46.040955 15.362102 39,025 134 439 0
2019-05-18 16:33:44 GMT 46.044445 15.356964 39,025 134 440 0
2019-05-18 16:33:34 GMT 46.059761 15.334511 39,025 134 440 -64
2019-05-18 16:33:30 GMT 46.064697 15.327301 39,050 134 441 -128
2019-05-18 16:33:25 GMT 46.074005 15.313637 39,050 134 441 -64
2019-05-18 16:33:20 GMT 46.079594 15.305397 39,050 134 439 128
2019-05-18 16:33:15 GMT 46.087463 15.293974 39,050 134 440 128
2019-05-18 16:33:05 GMT 46.100281 15.275216 39,000 134 441 0
2019-05-18 16:33:02 GMT 46.110130 15.260834 39,000 134 440 128
2019-05-18 16:32:59 GMT 46.110130 15.260834 39,000 134 441 64
2019-05-18 16:32:52 GMT 46.118370 15.248749 39,000 134 441 64
2019-05-18 16:32:47 GMT 46.128056 15.234535 39,000 134 441 64
2019-05-18 16:32:41 GMT 46.135391 15.223768 39,000 134 441 0
2019-05-18 16:32:33 GMT 46.146114 15.207962 39,000 134 441 0
2019-05-18 16:32:30 GMT 46.150444 15.201576 39,000 134 440 -64
2019-05-18 16:32:22 GMT 46.161667 15.185028 39,000 134 441 0
2019-05-18 16:32:16 GMT 46.170231 15.172394 39,000 133 440 0
2019-05-18 16:32:12 GMT 46.175816 15.164085 39,000 133 440 0
2019-05-18 16:32:09 GMT 46.181717 15.155238 39,025 134 439 0
2019-05-18 16:32:02 GMT 46.189548 15.143623 39,000 134 439 0
2019-05-18 16:31:59 GMT 46.196091 15.133868 39,000 134 440 0
2019-05-18 16:31:52 GMT 46.205051 15.120621 39,025 134 439 -64
2019-05-18 16:31:48 GMT 46.210220 15.112930 39,000 134 439 0
2019-05-18 16:31:40 GMT 46.221531 15.096313 39,025 134 440 -64
2019-05-18 16:31:37 GMT 46.227024 15.088142 39,025 134 439 0
2019-05-18 16:31:32 GMT 46.237244 15.073108 39,025 134 439 64
2019-05-18 16:31:29 GMT 46.237244 15.073108 39,025 134 439 64
2019-05-18 16:31:25 GMT 46.243011 15.064601 39,025 134 439 64
2019-05-18 16:31:22 GMT 46.252441 15.050652 39,000 133 435 0
2019-05-18 16:31:18 GMT 46.252441 15.050652 39,000 134 439 64
2019-05-18 16:31:14 GMT 46.258400 15.041862 39,000 134 440 0
2019-05-18 16:31:10 GMT 46.264847 15.032244 39,000 134 439 0
2019-05-18 16:31:06 GMT 46.271667 15.022156 39,000 134 439 0
2019-05-18 16:31:03 GMT 46.273109 15.019958 39,000 134 439 -64
2019-05-18 16:30:57 GMT 46.281815 15.006981 39,000 134 439 0
2019-05-18 16:30:52 GMT 46.288834 14.996472 39,025 133 439 0
2019-05-18 16:30:46 GMT 46.297623 14.983342 39,025 133 439 0
2019-05-18 16:30:43 GMT 46.303070 14.975236 39,000 134 439 0
2019-05-18 16:30:35 GMT 46.313564 14.959602 38,975 134 439 0
2019-05-18 16:30:30 GMT 46.320190 14.949847 39,000 134 439 64
2019-05-18 16:30:26 GMT 46.327995 14.938248 39,000 134 439 0
2019-05-18 16:30:20 GMT 46.334244 14.928946 39,000 134 439 -64
2019-05-18 16:30:14 GMT 46.342705 14.916412 39,000 134 439 64
2019-05-18 16:30:10 GMT 46.348385 14.907967 39,000 134 439 64
2019-05-18 16:30:04 GMT 46.357555 14.894302 39,000 133 439 64
2019-05-18 16:29:58 GMT 46.365330 14.882629 39,000 133 439 0
2019-05-18 16:29:53 GMT 46.372650 14.871670 39,000 133 439 0
2019-05-18 16:29:50 GMT 46.387344 14.849697 39,000 134 438 0
2019-05-18 16:29:43 GMT 46.387344 14.849697 39,000 134 438 0
2019-05-18 16:29:39 GMT 46.393215 14.840950 39,000 133 437 64
2019-05-18 16:29:32 GMT 46.404015 14.824883 39,000 133 437 64
2019-05-18 16:29:28 GMT 46.408951 14.817475 39,000 133 437 64
2019-05-18 16:29:20 GMT 46.422729 14.796842 39,000 133 437 0
2019-05-18 16:29:14 GMT 46.426895 14.790679 39,000 133 437 0
2019-05-18 16:29:10 GMT 46.432739 14.781898 39,000 133 437 0
2019-05-18 16:29:05 GMT 46.440140 14.770844 38,975 134 437 64
2019-05-18 16:29:00 GMT 46.455368 14.748074 38,975 133 435 0
2019-05-18 16:28:55 GMT 46.455368 14.748074 38,975 133 437 0
2019-05-18 16:28:50 GMT 46.463104 14.736484 38,975 133 437 0
2019-05-18 16:28:42 GMT 46.472958 14.721680 38,975 133 437 0
2019-05-18 16:28:38 GMT 46.490555 14.695312 38,975 133 435 0
2019-05-18 16:28:30 GMT 46.490555 14.695312 38,975 133 436 -64
2019-05-18 16:28:25 GMT 46.496384 14.686510 38,975 133 436 -64
2019-05-18 16:28:22 GMT 46.500595 14.680079 39,000 133 435 0
2019-05-18 16:28:17 GMT 46.506897 14.670662 38,975 133 436 -64
2019-05-18 16:28:12 GMT 46.516159 14.656586 39,000 133 436 -64
2019-05-18 16:28:08 GMT 46.520966 14.649398 39,000 133 436 -64
2019-05-18 16:28:03 GMT 46.531815 14.632985 39,000 133 436 -64
2019-05-18 16:27:59 GMT 46.531815 14.632985 39,000 133 435 -64
2019-05-18 16:27:56 GMT 46.541859 14.617790 39,000 133 435 0
2019-05-18 16:27:53 GMT 46.541859 14.617790 39,000 133 435 -64
2019-05-18 16:27:46 GMT 46.551773 14.602890 39,000 133 435 0
2019-05-18 16:27:41 GMT 46.558056 14.593414 39,000 133 435 0
2019-05-18 16:27:38 GMT 46.562946 14.586067 39,000 133 435 0
2019-05-18 16:27:35 GMT 46.566341 14.580917 39,000 133 435 0
2019-05-18 16:27:29 GMT 46.574799 14.568139 39,000 133 435 -64
2019-05-18 16:27:25 GMT 46.580959 14.558807 39,000 133 435 -64
2019-05-18 16:27:16 GMT 46.592285 14.541745 39,025 133 435 0
2019-05-18 16:27:13 GMT 46.596462 14.535461 39,025 133 435 0
2019-05-18 16:27:10 GMT 46.600700 14.529007 39,025 133 435 64
2019-05-18 16:27:07 GMT 46.605495 14.521729 39,025 133 435 0
2019-05-18 16:27:04 GMT 46.610569 14.514038 39,025 133 435 64
2019-05-18 16:26:59 GMT 46.615875 14.506073 39,025 133 435 0
2019-05-18 16:26:56 GMT 46.620804 14.498671 39,025 133 436 0
2019-05-18 16:26:52 GMT 46.625610 14.491369 39,025 133 436 0
2019-05-18 16:26:49 GMT 46.631657 14.482178 39,025 133 436 -64
2019-05-18 16:26:43 GMT 46.639477 14.470299 39,025 133 436 0
2019-05-18 16:26:38 GMT 46.645622 14.460960 39,025 133 435 0
2019-05-18 16:26:32 GMT 46.653255 14.449356 39,025 133 436 64
2019-05-18 16:26:27 GMT 46.660519 14.438370 39,025 133 436 0
2019-05-18 16:26:21 GMT 46.670151 14.423709 39,025 133 436 64
2019-05-18 16:26:16 GMT 46.676022 14.414749 39,025 133 437 0
2019-05-18 16:26:11 GMT 46.684982 14.401133 39,025 133 436 0
2019-05-18 16:26:05 GMT 46.692734 14.389343 39,025 133 436 -64
2019-05-18 16:26:02 GMT 46.696178 14.384193 39,025 133 436 64
2019-05-18 16:25:58 GMT 46.701691 14.375811 39,025 133 436 -64
2019-05-18 16:25:53 GMT 46.707813 14.366478 39,025 133 436 0
2019-05-18 16:25:50 GMT 46.712749 14.358994 39,025 133 436 64
2019-05-18 16:25:45 GMT 46.718582 14.350154 39,025 133 436 64
2019-05-18 16:25:41 GMT 46.726810 14.337570 39,025 133 436 64
2019-05-18 16:25:38 GMT 46.729843 14.333005 39,025 133 436 64
2019-05-18 16:25:31 GMT 46.739098 14.318962 39,000 133 436 64
2019-05-18 16:25:28 GMT 46.742844 14.313176 39,025 133 436 0
2019-05-18 16:25:24 GMT 46.747925 14.305472 39,000 133 436 0
2019-05-18 16:25:21 GMT 46.760193 14.286648 39,025 133 436 0
2019-05-18 16:25:16 GMT 46.760193 14.286648 39,025 133 436 0
2019-05-18 16:25:10 GMT 46.767242 14.275863 39,000 133 434 64
2019-05-18 16:25:07 GMT 46.773083 14.267052 39,000 133 435 64
2019-05-18 16:25:04 GMT 46.775803 14.262867 39,000 133 435 64
2019-05-18 16:24:54 GMT 46.791283 14.239243 38,975 133 436 64
2019-05-18 16:24:46 GMT 46.801525 14.223587 39,000 133 435 64
2019-05-18 16:24:42 GMT 46.806740 14.215691 38,975 133 435 64
2019-05-18 16:24:37 GMT 46.818695 14.197283 38,975 133 433 0
2019-05-18 16:24:33 GMT 46.822754 14.191109 38,975 133 435 0
2019-05-18 16:24:30 GMT 46.822754 14.191109 38,975 133 435 0
2019-05-18 16:24:23 GMT 46.832977 14.175378 38,975 133 435 0
2019-05-18 16:24:18 GMT 46.840256 14.164192 38,975 133 435 0
2019-05-18 16:24:14 GMT 46.845657 14.155884 38,975 133 433 0
2019-05-18 16:24:10 GMT 46.852112 14.146036 38,975 133 434 0
2019-05-18 16:24:03 GMT 46.861904 14.130959 38,975 133 434 0
2019-05-18 16:24:00 GMT 46.865162 14.126015 38,975 133 434 0
2019-05-18 16:23:57 GMT 46.870239 14.118187 38,975 133 433 0
2019-05-18 16:23:52 GMT 46.880432 14.102572 38,975 133 433 0
2019-05-18 16:23:45 GMT 46.885941 14.094017 38,975 133 433 0
2019-05-18 16:23:42 GMT 46.892117 14.084473 38,975 133 433 0
2019-05-18 16:23:37 GMT 46.897144 14.076726 38,975 133 434 0
2019-05-18 16:23:33 GMT 46.901894 14.069402 38,975 133 434 0
2019-05-18 16:23:28 GMT 46.909103 14.058311 38,975 133 434 -64
2019-05-18 16:23:20 GMT 46.922058 14.038399 39,000 133 433 -64
2019-05-18 16:23:16 GMT 46.927124 14.030597 39,000 133 433 0
2019-05-18 16:23:12 GMT 46.932339 14.022569 39,000 133 433 0
2019-05-18 16:23:08 GMT 46.937073 14.015259 39,000 133 434 0
2019-05-18 16:23:04 GMT 46.944019 14.004540 39,000 133 434 0
2019-05-18 16:23:00 GMT 46.949203 13.996513 39,000 133 434 0
2019-05-18 16:22:54 GMT 46.955334 13.987145 39,000 133 434 0
2019-05-18 16:22:50 GMT 46.962269 13.976440 39,000 133 434 -64
2019-05-18 16:22:47 GMT 46.965111 13.972074 39,000 133 434 -64
2019-05-18 16:22:43 GMT 46.973007 13.959778 39,025 133 434 -64
2019-05-18 16:22:37 GMT 46.978638 13.951126 39,025 133 434 -64
2019-05-18 16:22:34 GMT 46.983810 13.943092 39,025 133 434 0
2019-05-18 16:22:31 GMT 46.988712 13.935594 39,025 133 434 0
2019-05-18 16:22:27 GMT 46.995045 13.925734 39,025 133 434 64
2019-05-18 16:22:21 GMT 47.001938 13.915146 39,025 133 434 64
2019-05-18 16:22:15 GMT 47.009239 13.903832 39,000 133 435 128
2019-05-18 16:22:12 GMT 47.013897 13.896719 39,000 133 435 64
2019-05-18 16:22:06 GMT 47.021942 13.884247 39,000 133 435 64
2019-05-18 16:22:02 GMT 47.027817 13.875239 39,000 133 435 64
2019-05-18 16:21:59 GMT 47.032654 13.867767 39,000 133 435 0
2019-05-18 16:21:52 GMT 47.041504 13.854112 39,000 133 435 128
2019-05-18 16:21:49 GMT 47.047211 13.845177 39,000 133 436 0
2019-05-18 16:21:43 GMT 47.055420 13.832421 38,975 133 435 128
2019-05-18 16:21:40 GMT 47.057465 13.829247 39,000 133 435 64
2019-05-18 16:21:37 GMT 47.062870 13.820871 39,000 133 435 64
2019-05-18 16:21:34 GMT 47.067711 13.813336 39,000 133 435 128
2019-05-18 16:21:30 GMT 47.072067 13.806519 38,975 133 435 128
2019-05-18 16:21:26 GMT 47.087448 13.782623 39,000 133 435 0
2019-05-18 16:21:19 GMT 47.095596 13.769989 38,975 133 435 -64
2019-05-18 16:21:14 GMT 47.095596 13.769989 39,000 133 435 0
2019-05-18 16:21:11 GMT 47.099831 13.763334 38,975 133 435 0
2019-05-18 16:21:08 GMT 47.108139 13.750420 38,975 133 435 0
2019-05-18 16:21:01 GMT 47.113426 13.742206 39,000 133 435 -64
2019-05-18 16:20:56 GMT 47.118172 13.734741 39,000 133 435 -64
2019-05-18 16:20:53 GMT 47.124847 13.724327 39,000 133 435 -64
2019-05-18 16:20:46 GMT 47.132996 13.711624 39,000 133 435 -64
2019-05-18 16:20:41 GMT 47.141357 13.698613 39,000 133 435 0
2019-05-18 16:20:37 GMT 47.144707 13.693402 39,000 133 435 -64
2019-05-18 16:20:34 GMT 47.148605 13.687317 39,000 133 435 0
2019-05-18 16:20:28 GMT 47.159000 13.671218 39,025 133 435 0
2019-05-18 16:20:16 GMT 47.174782 13.646569 39,000 133 435 -64
2019-05-18 16:20:12 GMT 47.178970 13.640090 39,025 133 435 -64
2019-05-18 16:20:04 GMT 47.192276 13.619202 39,025 133 435 -64
2019-05-18 16:19:57 GMT 47.199554 13.607803 39,025 133 435 0
2019-05-18 16:19:54 GMT 47.205414 13.598602 39,050 132 435 0
2019-05-18 16:19:46 GMT 47.215027 13.583496 39,025 132 436 128
2019-05-18 16:19:43 GMT 47.219193 13.576904 39,025 132 436 64
2019-05-18 16:19:38 GMT 47.227524 13.563789 39,025 132 436 64
2019-05-18 16:19:32 GMT 47.234161 13.553284 39,025 132 435 64
2019-05-18 16:19:27 GMT 47.242374 13.540297 39,025 133 436 64
2019-05-18 16:19:22 GMT 47.257874 13.515930 39,000 133 437 0
2019-05-18 16:19:16 GMT 47.257874 13.515930 39,000 133 437 64
2019-05-18 16:19:10 GMT 47.264923 13.504875 39,000 133 437 64
2019-05-18 16:19:05 GMT 47.272865 13.492338 39,000 133 437 0
2019-05-18 16:19:00 GMT 47.279385 13.482056 39,000 133 437 -64
2019-05-18 16:18:52 GMT 47.294861 13.457771 39,000 133 437 -64
2019-05-18 16:18:48 GMT 47.294861 13.457771 39,000 133 437 -64
2019-05-18 16:18:42 GMT 47.312485 13.430099 39,025 133 437 0
2019-05-18 16:18:35 GMT 47.312485 13.430099 39,000 133 437 64
2019-05-18 16:18:32 GMT 47.318256 13.421067 39,025 133 437 128
2019-05-18 16:18:24 GMT 47.327660 13.406349 39,000 133 437 64
2019-05-18 16:18:20 GMT 47.333851 13.396630 39,000 133 437 0
2019-05-18 16:18:16 GMT 47.339111 13.388390 39,000 132 438 0
2019-05-18 16:18:13 GMT 47.343430 13.381554 39,000 132 438 0
2019-05-18 16:18:10 GMT 47.348785 13.373039 39,000 132 438 -192
2019-05-18 16:18:03 GMT 47.358383 13.357896 39,000 132 436 128
2019-05-18 16:17:59 GMT 47.363159 13.350243 39,000 132 436 128
2019-05-18 16:17:54 GMT 47.369705 13.339943 39,025 132 436 0
2019-05-18 16:17:50 GMT 47.379318 13.324562 39,000 132 435 64
2019-05-18 16:17:47 GMT 47.379318 13.324562 39,000 132 436 0
2019-05-18 16:17:43 GMT 47.384266 13.316838 39,000 132 436 0
2019-05-18 16:17:40 GMT 47.390411 13.307049 39,000 132 436 0
2019-05-18 16:17:35 GMT 47.395889 13.298401 39,000 132 436 0
2019-05-18 16:17:30 GMT 47.402069 13.288582 39,000 132 437 64
2019-05-18 16:17:27 GMT 47.406097 13.282127 39,000 132 437 64
2019-05-18 16:17:24 GMT 47.410801 13.274654 39,000 132 437 64
2019-05-18 16:17:20 GMT 47.416248 13.265991 39,000 132 436 0
2019-05-18 16:17:15 GMT 47.422764 13.255639 39,000 132 436 0
2019-05-18 16:17:12 GMT 47.428711 13.246216 39,000 132 436 0
2019-05-18 16:17:09 GMT 47.430771 13.242892 38,975 132 436 128
2019-05-18 16:17:05 GMT 47.437988 13.231483 39,000 132 436 0
2019-05-18 16:17:02 GMT 47.441387 13.226060 39,000 132 436 64
2019-05-18 16:16:58 GMT 47.453751 13.206390 39,000 132 435 128
2019-05-18 16:16:54 GMT 47.453751 13.206390 39,000 132 435 64
2019-05-18 16:16:49 GMT 47.457870 13.199867 39,000 132 435 64
2019-05-18 16:16:46 GMT 47.463272 13.191284 39,000 132 435 64
2019-05-18 16:16:43 GMT 47.472061 13.177255 38,975 132 436 64
2019-05-18 16:16:40 GMT 47.472061 13.177255 38,975 132 436 128
2019-05-18 16:16:35 GMT 47.479137 13.165987 38,975 132 437 0
2019-05-18 16:16:32 GMT 47.483284 13.159367 38,975 132 436 64
2019-05-18 16:16:27 GMT 47.488029 13.151832 38,950 132 437 64
2019-05-18 16:16:24 GMT 47.494362 13.141761 38,975 132 437 0
2019-05-18 16:16:21 GMT 47.497604 13.136627 38,950 132 437 -64
2019-05-18 16:16:15 GMT 47.505905 13.123451 38,950 132 437 -128
2019-05-18 16:16:11 GMT 47.510513 13.116028 38,975 132 437 -64
2019-05-18 16:16:08 GMT 47.516567 13.106337 38,975 132 436 64
2019-05-18 16:16:01 GMT 47.524063 13.094365 38,975 132 435 128
2019-05-18 16:15:54 GMT 47.539005 13.070491 38,975 132 435 0
2019-05-18 16:15:50 GMT 47.539005 13.070491 38,950 132 436 -192
2019-05-18 16:15:47 GMT 47.542915 13.064293 38,975 132 437 -128
2019-05-18 16:15:43 GMT 47.550247 13.052650 38,975 132 436 -128
2019-05-18 16:15:39 GMT 47.553810 13.046898 39,000 132 435 0
2019-05-18 16:15:36 GMT 47.560181 13.036789 39,000 132 436 -128
2019-05-18 16:15:33 GMT 47.562840 13.032532 39,000 132 435 192
2019-05-18 16:15:30 GMT 47.567688 13.024841 39,000 132 435 192
2019-05-18 16:15:27 GMT 47.571079 13.019433 38,950 132 436 -128
2019-05-18 16:15:24 GMT 47.574600 13.013855 39,000 132 434 256
2019-05-18 16:15:20 GMT 47.579971 13.005207 38,975 132 435 192
2019-05-18 16:15:17 GMT 47.583893 12.998886 38,950 132 435 192
2019-05-18 16:15:14 GMT 47.589329 12.990065 38,950 132 435 64
2019-05-18 16:15:11 GMT 47.593380 12.983586 39,000 132 440 0
2019-05-18 16:15:08 GMT 47.597031 12.977737 38,950 132 435 -64
2019-05-18 16:15:05 GMT 47.602478 12.969017 38,950 132 436 -128
2019-05-18 16:15:02 GMT 47.605808 12.963726 38,975 132 436 -128
2019-05-18 16:14:59 GMT 47.608795 12.958923 38,950 132 436 -128
2019-05-18 16:14:56 GMT 47.612976 12.952177 38,975 132 436 -128
2019-05-18 16:14:53 GMT 47.617813 12.944504 38,975 132 435 -128
2019-05-18 16:14:47 GMT 47.625824 12.931664 38,975 132 435 -64
2019-05-18 16:14:42 GMT 47.632095 12.921638 38,975 132 435 64
2019-05-18 16:14:39 GMT 47.636951 12.913865 38,975 132 435 64
2019-05-18 16:14:36 GMT 47.642071 12.905696 38,975 132 435 64
2019-05-18 16:14:32 GMT 47.646103 12.899185 38,975 132 435 0
2019-05-18 16:14:29 GMT 47.656586 12.882294 38,975 132 435 -64
2019-05-18 16:14:25 GMT 47.660751 12.875633 38,975 132 435 -192
2019-05-18 16:14:22 GMT 47.664917 12.868973 38,975 132 435 -64
2019-05-18 16:14:18 GMT 47.671646 12.858055 39,000 132 435 -192
2019-05-18 16:14:13 GMT 47.676147 12.850835 39,025 132 437 -64
2019-05-18 16:14:10 GMT 47.681129 12.842877 39,025 132 435 0
2019-05-18 16:14:03 GMT 47.685085 12.836538 39,025 132 435 0
2019-05-18 16:14:00 GMT 47.694675 12.821115 39,025 132 435 0
2019-05-18 16:13:57 GMT 47.694675 12.821115 39,025 132 435 0
2019-05-18 16:13:53 GMT 47.698631 12.814777 39,025 132 435 0
2019-05-18 16:13:50 GMT 47.704102 12.805939 39,025 132 436 0
2019-05-18 16:13:45 GMT 47.710098 12.796257 39,025 132 436 -64
2019-05-18 16:13:42 GMT 47.713394 12.790901 39,025 132 436 -64
2019-05-18 16:13:39 GMT 47.719986 12.780190 39,050 132 436 -64
2019-05-18 16:13:34 GMT 47.725166 12.771818 39,050 132 436 -64
2019-05-18 16:13:31 GMT 47.737785 12.751394 39,050 132 437 -64
2019-05-18 16:13:25 GMT 47.737785 12.751394 39,050 132 437 -64
2019-05-18 16:13:22 GMT 47.741928 12.744704 39,050 132 437 -64
2019-05-18 16:13:19 GMT 47.745975 12.738154 39,050 132 437 -64
2019-05-18 16:13:15 GMT 47.751480 12.729309 39,075 132 438 0
2019-05-18 16:13:12 GMT 47.755508 12.722786 39,050 132 437 64
2019-05-18 16:13:09 GMT 47.759571 12.716182 39,050 132 437 64
2019-05-18 16:13:05 GMT 47.766312 12.705414 39,050 132 438 128
2019-05-18 16:13:01 GMT 47.770660 12.698410 39,050 132 438 192
2019-05-18 16:12:58 GMT 47.774887 12.691603 39,025 132 438 192
2019-05-18 16:12:52 GMT 47.783218 12.678082 39,025 132 438 192
2019-05-18 16:12:49 GMT 47.786728 12.672386 39,000 132 440 128
2019-05-18 16:12:45 GMT 47.793732 12.660988 39,000 132 441 128
2019-05-18 16:12:42 GMT 47.795509 12.658081 39,000 132 441 128
2019-05-18 16:12:39 GMT 47.801605 12.648081 39,000 132 441 128
2019-05-18 16:12:36 GMT 47.805176 12.642311 38,975 132 441 64
2019-05-18 16:12:32 GMT 47.809334 12.635615 38,975 132 441 0
2019-05-18 16:12:29 GMT 47.815201 12.626178 38,975 132 441 0
2019-05-18 16:12:21 GMT 47.826092 12.608502 39,000 132 441 -64
2019-05-18 16:12:17 GMT 47.831352 12.599839 38,975 132 441 -64
2019-05-18 16:12:12 GMT 47.838337 12.588431 39,000 132 441 -64
2019-05-18 16:12:06 GMT 47.845783 12.576177 39,000 132 441 -128
2019-05-18 16:12:02 GMT 47.851868 12.566231 39,000 132 441 -128
2019-05-18 16:11:54 GMT 47.868210 12.539452 39,025 132 441 -64
2019-05-18 16:11:50 GMT 47.868210 12.539452 39,025 132 441 -64
2019-05-18 16:11:46 GMT 47.874161 12.529701 39,025 132 440 -64
2019-05-18 16:11:39 GMT 47.883121 12.515188 39,025 132 440 -64
2019-05-18 16:11:34 GMT 47.889683 12.504554 39,025 132 441 -64
2019-05-18 16:11:29 GMT 47.896385 12.493638 39,050 132 440 0
2019-05-18 16:11:26 GMT 47.901855 12.484795 39,050 132 440 0
2019-05-18 16:11:22 GMT 47.911190 12.469482 39,050 132 440 0
2019-05-18 16:11:19 GMT 47.918362 12.457792 39,050 132 440 0
2019-05-18 16:11:13 GMT 47.918362 12.457792 39,050 132 440 64
2019-05-18 16:11:09 GMT 47.924057 12.448471 39,050 132 440 64
2019-05-18 16:11:06 GMT 47.928928 12.440538 39,025 132 440 64
2019-05-18 16:11:03 GMT 47.932186 12.435185 39,025 132 440 128
2019-05-18 16:10:58 GMT 47.938190 12.425326 39,025 132 440 128
2019-05-18 16:10:55 GMT 47.944336 12.415185 39,025 132 441 0
2019-05-18 16:10:52 GMT 47.952713 12.401436 39,000 132 441 0
2019-05-18 16:10:48 GMT 47.952713 12.401436 39,000 132 441 0
2019-05-18 16:10:45 GMT 47.956764 12.394832 39,000 132 441 0
2019-05-18 16:10:42 GMT 47.961189 12.387578 39,000 132 441 0
2019-05-18 16:10:38 GMT 47.966633 12.378564 39,000 132 441 -64
2019-05-18 16:10:35 GMT 47.971382 12.370817 39,025 132 441 -64
2019-05-18 16:10:32 GMT 47.974781 12.365183 39,025 131 441 -64
2019-05-18 16:10:28 GMT 47.980461 12.355887 39,025 132 440 0
2019-05-18 16:10:25 GMT 47.984482 12.349251 39,025 132 440 0
2019-05-18 16:10:22 GMT 47.988468 12.342717 39,025 131 439 0
2019-05-18 16:10:19 GMT 47.992424 12.336097 39,025 131 441 0
2019-05-18 16:10:15 GMT 47.998058 12.326801 39,025 131 440 64
2019-05-18 16:10:11 GMT 48.003506 12.317716 39,025 131 439 64
2019-05-18 16:10:07 GMT 48.014538 12.299406 39,000 131 440 64
2019-05-18 16:10:03 GMT 48.014538 12.299406 39,000 132 440 0
2019-05-18 16:10:00 GMT 48.017239 12.294898 39,000 132 440 0
2019-05-18 16:09:57 GMT 48.022495 12.286236 39,000 132 440 0
2019-05-18 16:09:54 GMT 48.025818 12.280792 39,000 133 440 -64
2019-05-18 16:09:51 GMT 48.030689 12.272855 39,000 133 440 -64
2019-05-18 16:09:48 GMT 48.034786 12.266376 39,000 133 440 -64
2019-05-18 16:09:45 GMT 48.043259 12.253066 39,000 133 440 0
2019-05-18 16:09:42 GMT 48.043259 12.253066 39,025 133 439 0
2019-05-18 16:09:39 GMT 48.046844 12.247502 39,025 133 439 64
2019-05-18 16:09:36 GMT 48.051594 12.240037 39,000 133 439 0
2019-05-18 16:09:33 GMT 48.055969 12.233276 39,000 133 439 0
2019-05-18 16:09:30 GMT 48.061340 12.224899 39,000 133 439 0
2019-05-18 16:09:27 GMT 48.064068 12.220741 38,975 133 437 0
2019-05-18 16:09:23 GMT 48.070866 12.210106 39,000 133 439 0
2019-05-18 16:09:20 GMT 48.074821 12.204050 39,000 133 439 64
2019-05-18 16:09:17 GMT 48.077709 12.199543 39,000 133 439 64
2019-05-18 16:09:14 GMT 48.081432 12.193768 39,000 133 439 64
2019-05-18 16:09:11 GMT 48.086460 12.185880 39,000 133 438 64
2019-05-18 16:09:08 GMT 48.096222 12.170654 39,000 133 439 64
2019-05-18 16:09:05 GMT 48.096222 12.170654 39,000 133 438 64
2019-05-18 16:09:02 GMT 48.098923 12.166397 39,000 133 438 64
2019-05-18 16:08:59 GMT 48.103081 12.159823 39,000 133 439 64
2019-05-18 16:08:56 GMT 48.107269 12.153273 39,000 133 438 64
2019-05-18 16:08:53 GMT 48.115585 12.140167 38,975 133 437 64
2019-05-18 16:08:50 GMT 48.121124 12.131516 38,975 133 437 0
2019-05-18 16:08:47 GMT 48.121124 12.131516 38,975 133 437 0
2019-05-18 16:08:44 GMT 48.124283 12.126640 38,975 133 437 0
2019-05-18 16:08:41 GMT 48.128311 12.120255 38,975 133 437 0
2019-05-18 16:08:38 GMT 48.133850 12.111582 38,975 133 437 0
2019-05-18 16:08:34 GMT 48.139023 12.103432 38,975 133 437 -64
2019-05-18 16:08:31 GMT 48.143829 12.095947 38,975 133 437 0
2019-05-18 16:08:28 GMT 48.152161 12.082901 39,000 133 437 0
2019-05-18 16:08:25 GMT 48.152161 12.082901 38,975 133 436 0
2019-05-18 16:08:21 GMT 48.156475 12.076087 39,000 133 437 0
2019-05-18 16:08:18 GMT 48.166077 12.061087 39,000 133 437 0
2019-05-18 16:08:14 GMT 48.166077 12.061087 38,975 133 435 -64
2019-05-18 16:08:11 GMT 48.170837 12.053692 38,975 133 436 0
2019-05-18 16:08:07 GMT 48.177422 12.043401 39,000 133 436 0
2019-05-18 16:08:04 GMT 48.180168 12.038992 38,975 133 436 64
2019-05-18 16:08:01 GMT 48.184265 12.032631 38,975 133 436 64
2019-05-18 16:07:58 GMT 48.188553 12.025874 38,975 133 436 64
2019-05-18 16:07:55 GMT 48.192810 12.019254 38,975 133 436 64
2019-05-18 16:07:52 GMT 48.196369 12.013622 38,975 133 436 64
2019-05-18 16:07:49 GMT 48.201584 12.005455 38,975 133 436 64
2019-05-18 16:07:46 GMT 48.205074 11.999961 38,975 133 436 64
2019-05-18 16:07:43 GMT 48.209885 11.992422 38,975 133 436 64
2019-05-18 16:07:40 GMT 48.215271 11.983988 38,975 133 435 64
2019-05-18 16:07:37 GMT 48.217319 11.980663 38,950 133 435 0
2019-05-18 16:07:34 GMT 48.221649 11.973900 38,975 133 435 -64
2019-05-18 16:07:31 GMT 48.227051 11.965309 38,975 133 435 -64
2019-05-18 16:07:27 GMT 48.232075 11.957462 38,975 133 435 -64
2019-05-18 16:07:24 GMT 48.235382 11.952209 38,975 133 435 -64
2019-05-18 16:07:20 GMT 48.240784 11.943688 38,975 133 435 0
2019-05-18 16:07:17 GMT 48.244720 11.937491 38,975 133 435 0
2019-05-18 16:07:14 GMT 48.249527 11.929955 38,975 133 434 0
2019-05-18 16:07:11 GMT 48.254093 11.922696 38,975 133 435 0
2019-05-18 16:07:07 GMT 48.259960 11.913516 38,975 133 435 64
2019-05-18 16:07:04 GMT 48.264267 11.906785 38,975 133 434 0
2019-05-18 16:07:00 GMT 48.269039 11.899205 38,975 133 434 0
2019-05-18 16:06:57 GMT 48.273880 11.891616 38,975 133 434 0
2019-05-18 16:06:54 GMT 48.278114 11.884966 38,975 133 434 0
2019-05-18 16:06:49 GMT 48.287567 11.870005 38,975 133 434 0
2019-05-18 16:06:45 GMT 48.290359 11.865587 38,975 133 435 0
2019-05-18 16:06:42 GMT 48.294361 11.859235 38,975 133 435 0
2019-05-18 16:06:38 GMT 48.298553 11.852658 38,975 133 435 0
2019-05-18 16:06:35 GMT 48.304325 11.843479 38,975 133 435 0
2019-05-18 16:06:32 GMT 48.308304 11.837205 38,975 133 435 0
2019-05-18 16:06:29 GMT 48.312752 11.830107 38,975 133 435 0
2019-05-18 16:06:22 GMT 48.321030 11.816923 38,975 133 435 -64
2019-05-18 16:06:19 GMT 48.330688 11.801640 38,975 133 434 -64
2019-05-18 16:06:12 GMT 48.338974 11.788541 39,000 133 434 -64
2019-05-18 16:06:09 GMT 48.338974 11.788541 39,000 133 434 -64
2019-05-18 16:06:05 GMT 48.344879 11.779316 39,000 133 435 0
2019-05-18 16:06:02 GMT 48.349014 11.772790 39,000 133 434 -64
2019-05-18 16:05:59 GMT 48.353531 11.765635 39,000 133 434 -64
2019-05-18 16:05:56 GMT 48.359768 11.755805 39,000 133 434 -64
2019-05-18 16:05:53 GMT 48.361118 11.753636 39,000 133 435 0
2019-05-18 16:05:50 GMT 48.365353 11.746915 39,000 133 435 0
2019-05-18 16:05:47 GMT 48.375038 11.731591 39,050 133 435 0
2019-05-18 16:05:43 GMT 48.375038 11.731591 39,000 133 435 0
2019-05-18 16:05:40 GMT 48.384476 11.716567 39,000 133 435 64
2019-05-18 16:05:36 GMT 48.384476 11.716567 39,000 133 435 0
2019-05-18 16:05:32 GMT 48.391846 11.704876 39,000 133 435 0
2019-05-18 16:05:29 GMT 48.395370 11.699242 39,000 133 435 -64
2019-05-18 16:05:25 GMT 48.400223 11.691495 39,000 133 435 -64
2019-05-18 16:05:21 GMT 48.405762 11.682692 39,025 133 435 0
2019-05-18 16:05:18 GMT 48.410694 11.674781 39,025 133 435 -128
2019-05-18 16:05:14 GMT 48.414608 11.668565 39,025 133 435 0
2019-05-18 16:05:11 GMT 48.419773 11.660253 39,050 133 435 0
2019-05-18 16:05:08 GMT 48.424522 11.652663 39,050 133 435 0
2019-05-18 16:05:04 GMT 48.429153 11.645226 39,050 133 435 0
2019-05-18 16:05:01 GMT 48.433460 11.638352 39,050 133 435 0
2019-05-18 16:04:58 GMT 48.437805 11.631352 39,050 133 435 0
2019-05-18 16:04:54 GMT 48.441978 11.624692 39,050 133 435 0
2019-05-18 16:04:50 GMT 48.452133 11.608464 39,050 133 436 0
2019-05-18 16:04:47 GMT 48.456409 11.601707 39,050 133 436 0
2019-05-18 16:04:44 GMT 48.456409 11.601707 39,050 133 436 0
2019-05-18 16:04:41 GMT 48.459904 11.596142 39,050 132 437 0
2019-05-18 16:04:35 GMT 48.468613 11.582266 39,050 133 437 0
2019-05-18 16:04:31 GMT 48.474289 11.573181 39,050 133 437 0
2019-05-18 16:04:28 GMT 48.478592 11.566279 39,050 133 437 0
2019-05-18 16:04:22 GMT 48.488300 11.550751 39,050 133 437 0
2019-05-18 16:04:19 GMT 48.490494 11.547265 39,050 133 437 0
2019-05-18 16:04:13 GMT 48.499695 11.532616 39,050 133 437 64
2019-05-18 16:04:10 GMT 48.502899 11.527475 39,050 133 437 64
2019-05-18 16:04:06 GMT 48.509247 11.517286 39,050 133 438 64
2019-05-18 16:04:02 GMT 48.515438 11.507384 39,050 133 438 64
2019-05-18 16:03:58 GMT 48.519516 11.500854 39,050 133 438 64
2019-05-18 16:03:55 GMT 48.524231 11.493319 39,025 133 439 64
2019-05-18 16:03:52 GMT 48.530090 11.483952 39,025 133 439 64
2019-05-18 16:03:48 GMT 48.533592 11.478328 39,025 133 439 64
2019-05-18 16:03:45 GMT 48.539200 11.469374 39,025 133 439 64
2019-05-18 16:03:42 GMT 48.541946 11.464938 39,025 133 439 64
2019-05-18 16:03:39 GMT 48.546909 11.457006 39,025 133 439 64
2019-05-18 16:03:36 GMT 48.549774 11.452332 39,025 133 439 64
2019-05-18 16:03:31 GMT 48.558426 11.438458 39,025 133 439 64
2019-05-18 16:03:27 GMT 48.562641 11.431636 39,025 133 439 64
2019-05-18 16:03:24 GMT 48.567204 11.424336 39,000 133 439 64
2019-05-18 16:03:21 GMT 48.571396 11.417614 39,000 133 439 64
2019-05-18 16:03:17 GMT 48.577122 11.408362 39,000 132 438 64
2019-05-18 16:03:14 GMT 48.582615 11.399544 39,000 133 439 64
2019-05-18 16:03:11 GMT 48.589504 11.388486 39,000 133 439 0
2019-05-18 16:03:08 GMT 48.589504 11.388486 39,000 133 439 0
2019-05-18 16:03:05 GMT 48.594910 11.379794 39,000 132 438 0
2019-05-18 16:03:01 GMT 48.606171 11.361598 39,000 133 438 0
2019-05-18 16:02:56 GMT 48.606171 11.361598 39,000 132 438 0
2019-05-18 16:02:52 GMT 48.611336 11.353358 39,000 133 438 64
2019-05-18 16:02:49 GMT 48.615524 11.346564 39,000 133 438 64
2019-05-18 16:02:45 GMT 48.621002 11.337750 39,000 133 437 0
2019-05-18 16:02:41 GMT 48.628609 11.325459 39,000 133 437 0
2019-05-18 16:02:38 GMT 48.630020 11.323172 39,000 133 437 0
2019-05-18 16:02:35 GMT 48.634937 11.315267 39,000 133 437 0
2019-05-18 16:02:32 GMT 48.645035 11.298946 39,000 133 437 -64
2019-05-18 16:02:28 GMT 48.645035 11.298946 39,000 133 437 -64
2019-05-18 16:02:25 GMT 48.649109 11.292396 39,000 133 437 -64
2019-05-18 16:02:22 GMT 48.652725 11.286551 39,000 133 437 -64
2019-05-18 16:02:18 GMT 48.657749 11.278478 39,000 133 437 -64
2019-05-18 16:02:15 GMT 48.662498 11.270744 39,000 133 437 0
2019-05-18 16:02:12 GMT 48.667526 11.262721 39,000 133 436 0
2019-05-18 16:02:09 GMT 48.670971 11.257156 39,000 133 436 0
2019-05-18 16:02:05 GMT 48.677902 11.245986 39,000 133 436 0
2019-05-18 16:01:59 GMT 48.685455 11.233732 39,000 133 435 -64
2019-05-18 16:01:56 GMT 48.689079 11.227883 39,000 133 436 0
2019-05-18 16:01:52 GMT 48.693733 11.220366 39,000 132 437 0
2019-05-18 16:01:47 GMT 48.701042 11.208584 39,000 132 435 -64
2019-05-18 16:01:43 GMT 48.707561 11.198032 39,025 133 435 0
2019-05-18 16:01:40 GMT 48.710861 11.192603 39,025 133 435 -64
2019-05-18 16:01:37 GMT 48.715801 11.184660 39,025 133 435 0
2019-05-18 16:01:33 GMT 48.721340 11.175698 39,025 133 435 0
2019-05-18 16:01:30 GMT 48.725529 11.168904 39,025 133 435 64
2019-05-18 16:01:26 GMT 48.730087 11.161546 39,025 132 434 0
2019-05-18 16:01:23 GMT 48.735535 11.152602 39,025 132 434 0
2019-05-18 16:01:17 GMT 48.742950 11.140630 39,025 132 434 0
2019-05-18 16:01:14 GMT 48.746292 11.135137 39,025 132 434 0
2019-05-18 16:01:11 GMT 48.750458 11.128376 39,025 132 434 0
2019-05-18 16:01:08 GMT 48.754715 11.121544 39,025 132 434 0
2019-05-18 16:01:05 GMT 48.758652 11.115065 39,025 132 434 0
2019-05-18 16:01:00 GMT 48.766075 11.102986 39,025 132 435 0
2019-05-18 16:00:56 GMT 48.775291 11.088024 39,025 132 434 0
2019-05-18 16:00:53 GMT 48.775291 11.088024 39,000 132 434 0
2019-05-18 16:00:50 GMT 48.779251 11.081519 39,025 132 434 0
2019-05-18 16:00:47 GMT 48.782593 11.076120 39,025 132 434 0
2019-05-18 16:00:44 GMT 48.787678 11.067858 39,000 132 434 0
2019-05-18 16:00:40 GMT 48.794006 11.057522 39,025 132 434 0
2019-05-18 16:00:34 GMT 48.805412 11.038947 39,000 132 434 0
2019-05-18 16:00:31 GMT 48.811695 11.028756 39,000 132 433 64
2019-05-18 16:00:27 GMT 48.811695 11.028756 39,025 132 434 0
2019-05-18 16:00:24 GMT 48.816238 11.021400 39,000 132 433 0
2019-05-18 16:00:21 GMT 48.818958 11.016902 39,000 132 434 0
2019-05-18 16:00:17 GMT 48.825806 11.005836 39,000 132 433 0
2019-05-18 16:00:14 GMT 48.827911 11.002385 39,000 132 433 0
2019-05-18 16:00:11 GMT 48.832832 10.994351 39,000 132 433 0
2019-05-18 16:00:08 GMT 48.838139 10.985605 39,000 132 433 64
2019-05-18 16:00:05 GMT 48.841095 10.980835 39,000 132 433 64
2019-05-18 16:00:02 GMT 48.844608 10.975053 39,000 132 433 64
2019-05-18 15:59:59 GMT 48.849312 10.967391 39,000 132 433 0
2019-05-18 15:59:55 GMT 48.855225 10.957706 39,000 132 433 64
2019-05-18 15:59:52 GMT 48.858154 10.952935 39,000 132 433 0
2019-05-18 15:59:49 GMT 48.861649 10.947153 39,000 132 433 0
2019-05-18 15:59:46 GMT 48.866272 10.939636 39,000 132 433 0
2019-05-18 15:59:43 GMT 48.869793 10.933926 39,000 132 433 0
2019-05-18 15:59:40 GMT 48.875565 10.924424 39,000 132 433 0
2019-05-18 15:59:34 GMT 48.882065 10.913790 39,000 132 433 64
2019-05-18 15:59:31 GMT 48.887924 10.904212 38,975 132 433 64
2019-05-18 15:59:28 GMT 48.890232 10.900461 38,975 132 433 64
2019-05-18 15:59:25 GMT 48.894932 10.892728 38,975 132 433 64
2019-05-18 15:59:22 GMT 48.898453 10.886888 38,975 132 433 64
2019-05-18 15:59:19 GMT 48.902519 10.880296 38,975 132 432 64
2019-05-18 15:59:16 GMT 48.906246 10.874080 38,975 132 432 64
2019-05-18 15:59:13 GMT 48.911690 10.865189 38,975 132 433 0
2019-05-18 15:59:10 GMT 48.916534 10.857239 38,975 133 432 -64
2019-05-18 15:59:07 GMT 48.919697 10.852035 38,975 133 432 -64
2019-05-18 15:59:04 GMT 48.923141 10.846469 38,975 135 432 -128
2019-05-18 15:59:01 GMT 48.927383 10.839773 38,975 135 429 0
2019-05-18 15:58:58 GMT 48.932175 10.832375 38,975 135 432 -128
2019-05-18 15:58:55 GMT 48.936459 10.825870 38,975 136 430 0
2019-05-18 15:58:51 GMT 48.942078 10.817589 38,975 136 430 -64
2019-05-18 15:58:47 GMT 48.947445 10.809752 38,975 136 430 0
2019-05-18 15:58:43 GMT 48.952423 10.802452 38,975 136 430 64
2019-05-18 15:58:40 GMT 48.958603 10.793363 38,975 136 430 64
2019-05-18 15:58:36 GMT 48.967621 10.780194 38,975 136 430 0
2019-05-18 15:58:33 GMT 48.967621 10.780194 38,975 136 430 64
2019-05-18 15:58:30 GMT 48.971790 10.774119 38,975 136 430 0
2019-05-18 15:58:27 GMT 48.975559 10.768625 38,975 136 430 0
2019-05-18 15:58:24 GMT 48.980404 10.761470 38,975 136 430 0
2019-05-18 15:58:21 GMT 48.984879 10.754981 38,975 136 430 0
2019-05-18 15:58:17 GMT 48.991150 10.745756 38,975 136 430 -64
2019-05-18 15:58:14 GMT 48.994675 10.740615 38,975 136 430 -64
2019-05-18 15:58:10 GMT 49.004005 10.726993 38,975 136 430 -64
2019-05-18 15:58:04 GMT 49.009781 10.718572 38,975 136 430 0
2019-05-18 15:58:00 GMT 49.020813 10.702444 38,975 136 430 0
2019-05-18 15:57:56 GMT 49.020813 10.702444 38,975 136 430 0
2019-05-18 15:57:53 GMT 49.025139 10.696130 38,975 135 429 0
2019-05-18 15:57:49 GMT 49.034962 10.681747 39,000 135 430 0
2019-05-18 15:57:46 GMT 49.034962 10.681747 39,000 135 430 0
2019-05-18 15:57:43 GMT 49.039398 10.675190 38,975 135 429 0
2019-05-18 15:57:39 GMT 49.046555 10.664617 39,000 135 430 0
2019-05-18 15:57:35 GMT 49.051987 10.656527 39,000 135 430 0
2019-05-18 15:57:32 GMT 49.055557 10.651245 39,000 135 430 0
2019-05-18 15:57:28 GMT 49.060730 10.643569 39,000 135 430 0
2019-05-18 15:57:25 GMT 49.068466 10.632019 39,000 135 430 0
2019-05-18 15:57:22 GMT 49.068466 10.632019 39,000 135 430 0
2019-05-18 15:57:18 GMT 49.074345 10.623273 39,000 135 430 0
2019-05-18 15:57:15 GMT 49.078720 10.616696 39,000 135 430 0
2019-05-18 15:57:12 GMT 49.083664 10.609342 39,000 135 430 0
2019-05-18 15:57:06 GMT 49.092728 10.595821 39,000 135 431 0
2019-05-18 15:57:03 GMT 49.096176 10.590676 39,000 136 430 0
2019-05-18 15:57:00 GMT 49.101700 10.582440 39,000 135 431 0
2019-05-18 15:56:57 GMT 49.104538 10.578285 39,000 135 431 0
2019-05-18 15:56:54 GMT 49.109028 10.571594 39,000 135 431 0
2019-05-18 15:56:51 GMT 49.114609 10.563284 39,000 135 432 0
2019-05-18 15:56:48 GMT 49.117592 10.558873 39,000 135 432 0
2019-05-18 15:56:45 GMT 49.121658 10.552791 39,000 135 432 -64
2019-05-18 15:56:41 GMT 49.127228 10.544490 39,000 135 432 -64
2019-05-18 15:56:38 GMT 49.137634 10.528987 39,025 135 432 0
2019-05-18 15:56:35 GMT 49.137634 10.528987 39,025 135 432 0
2019-05-18 15:56:31 GMT 49.140961 10.524035 39,025 135 432 64
2019-05-18 15:56:28 GMT 49.144867 10.518282 39,025 135 432 64
2019-05-18 15:56:25 GMT 49.149944 10.510663 39,000 135 432 64
2019-05-18 15:56:22 GMT 49.155579 10.502279 39,000 135 433 64
2019-05-18 15:56:19 GMT 49.160568 10.494831 39,000 135 434 64
2019-05-18 15:56:16 GMT 49.162720 10.491732 39,000 135 434 64
2019-05-18 15:56:12 GMT 49.169216 10.481897 39,000 135 434 0
2019-05-18 15:56:09 GMT 49.172745 10.476661 39,000 135 434 0
2019-05-18 15:56:06 GMT 49.176994 10.470260 39,000 135 434 0
2019-05-18 15:56:03 GMT 49.182587 10.461872 39,000 135 434 0
2019-05-18 15:56:00 GMT 49.185513 10.457467 39,000 135 434 64
2019-05-18 15:55:55 GMT 49.194218 10.444167 39,000 135 434 0
2019-05-18 15:55:52 GMT 49.197754 10.438819 39,000 135 434 0
2019-05-18 15:55:49 GMT 49.204365 10.428844 39,000 135 434 0
2019-05-18 15:55:46 GMT 49.206482 10.425603 39,000 135 432 0
2019-05-18 15:55:43 GMT 49.210098 10.420110 39,000 137 429 0
2019-05-18 15:55:39 GMT 49.217056 10.409828 39,000 136 432 -64
2019-05-18 15:55:36 GMT 49.219402 10.406366 39,000 136 431 -64
2019-05-18 15:55:33 GMT 49.225967 10.396825 39,000 137 431 -64
2019-05-18 15:55:29 GMT 49.231785 10.388585 39,000 137 430 0
2019-05-18 15:55:25 GMT 49.235092 10.383982 38,975 137 426 576
2019-05-18 15:55:21 GMT 49.241051 10.375647 39,000 137 429 0
2019-05-18 15:55:18 GMT 49.246635 10.367697 39,000 137 427 -64
2019-05-18 15:55:15 GMT 49.249969 10.362995 39,000 137 427 -64
2019-05-18 15:55:12 GMT 49.256645 10.353675 39,000 137 427 -64
2019-05-18 15:55:09 GMT 49.259575 10.349555 39,000 137 426 -64
2019-05-18 15:55:06 GMT 49.264801 10.342219 38,975 137 430 0
2019-05-18 15:55:03 GMT 49.269585 10.335533 39,000 137 425 0
2019-05-18 15:55:00 GMT 49.272446 10.331585 39,025 137 424 128
2019-05-18 15:54:57 GMT 49.278305 10.323345 39,000 137 424 192
2019-05-18 15:54:53 GMT 49.288193 10.309472 38,975 137 425 576
2019-05-18 15:54:50 GMT 49.291138 10.305248 38,950 136 426 576
2019-05-18 15:54:44 GMT 49.295471 10.299190 38,500 137 426 576
2019-05-18 15:54:41 GMT 49.299728 10.293133 38,875 137 426 576
2019-05-18 15:54:38 GMT 49.304268 10.286817 38,850 137 427 576
2019-05-18 15:54:34 GMT 49.309753 10.278978 38,800 137 428 512
2019-05-18 15:54:31 GMT 49.315254 10.271205 38,775 137 429 512
2019-05-18 15:54:27 GMT 49.320885 10.263254 38,750 137 430 512
2019-05-18 15:54:24 GMT 49.331360 10.248437 38,625 137 430 512
2019-05-18 15:54:19 GMT 49.331360 10.248437 38,325 137 430 192
2019-05-18 15:54:16 GMT 49.335781 10.242077 38,675 137 430 576
2019-05-18 15:54:13 GMT 49.345139 10.228850 38,500 137 432 192
2019-05-18 15:54:10 GMT 49.345139 10.228850 38,600 137 430 256
2019-05-18 15:54:07 GMT 49.354797 10.215172 38,600 137 428 512
2019-05-18 15:54:03 GMT 49.354797 10.215172 38,600 137 428 320
2019-05-18 15:54:00 GMT 49.360428 10.207214 38,525 137 428 448
2019-05-18 15:53:57 GMT 49.363342 10.203046 38,525 137 428 576
2019-05-18 15:53:54 GMT 49.369022 10.195023 38,500 137 428 704
2019-05-18 15:53:50 GMT 49.375214 10.186298 38,300 137 428 1344
2019-05-18 15:53:47 GMT 49.378052 10.182284 38,300 137 428 1344
2019-05-18 15:53:44 GMT 49.383041 10.175171 38,400 137 429 1472
2019-05-18 15:53:41 GMT 49.386059 10.170955 38,350 137 428 1344
2019-05-18 15:53:38 GMT 49.397186 10.155198 38,225 137 429 1472
2019-05-18 15:53:35 GMT 49.397186 10.155198 38,150 136 429 1408
2019-05-18 15:53:32 GMT 49.399979 10.151226 38,100 137 432 192
2019-05-18 15:53:29 GMT 49.405842 10.142838 37,675 137 432 192
2019-05-18 15:53:26 GMT 49.414597 10.130406 37,900 137 433 1216
2019-05-18 15:53:23 GMT 49.418930 10.124324 37,900 137 433 1216
2019-05-18 15:53:20 GMT 49.418930 10.124324 37,850 137 433 1152
2019-05-18 15:53:14 GMT 49.426849 10.113056 37,750 136 429 64
2019-05-18 15:53:11 GMT 49.431656 10.106193 37,725 137 433 512
2019-05-18 15:53:07 GMT 49.436646 10.099038 37,700 137 433 320
2019-05-18 15:53:04 GMT 49.441132 10.092677 37,675 137 430 64
2019-05-18 15:53:00 GMT 49.447037 10.084293 37,425 137 425 576
2019-05-18 15:52:57 GMT 49.452209 10.076913 37,675 137 428 192
2019-05-18 15:52:51 GMT 49.464844 10.058995 37,625 137 425 576
2019-05-18 15:52:48 GMT 49.464844 10.058995 37,625 137 425 640
2019-05-18 15:52:44 GMT 49.470459 10.050931 37,550 137 425 768
2019-05-18 15:52:41 GMT 49.474823 10.044756 37,525 137 425 768
2019-05-18 15:52:38 GMT 49.479263 10.038396 37,500 137 425 640
2019-05-18 15:52:35 GMT 49.482746 10.033413 37,475 137 425 640
2019-05-18 15:52:32 GMT 49.487171 10.027029 37,425 137 423 320
2019-05-18 15:52:29 GMT 49.492767 10.019098 37,425 137 423 320
2019-05-18 15:52:26 GMT 49.497665 10.012014 37,400 137 420 704
2019-05-18 15:52:23 GMT 49.501602 10.006377 37,350 137 420 448
2019-05-18 15:52:19 GMT 49.505905 10.000305 37,375 137 420 320
2019-05-18 15:52:15 GMT 49.511471 9.992288 37,325 137 419 1024
2019-05-18 15:52:11 GMT 49.517441 9.983753 37,225 136 418 0
2019-05-18 15:52:08 GMT 49.522522 9.976526 37,250 137 418 1024
2019-05-18 15:52:04 GMT 49.526554 9.970761 37,125 137 419 960
2019-05-18 15:52:01 GMT 49.533005 9.961564 37,075 137 419 832
2019-05-18 15:51:57 GMT 49.537949 9.954481 37,075 137 419 704
2019-05-18 15:51:54 GMT 49.542160 9.948482 37,075 137 419 576
2019-05-18 15:51:51 GMT 49.545734 9.943369 37,000 137 419 320
2019-05-18 15:51:47 GMT 49.550629 9.936339 37,000 136 415 -64
2019-05-18 15:51:44 GMT 49.554794 9.930340 37,000 136 418 0
2019-05-18 15:51:41 GMT 49.559372 9.923846 37,000 136 418 0
2019-05-18 15:51:36 GMT 49.567657 9.911909 37,000 136 416 0
2019-05-18 15:51:32 GMT 49.572968 9.904249 37,000 136 416 0
2019-05-18 15:51:28 GMT 49.577854 9.897197 37,000 136 415 -64
2019-05-18 15:51:25 GMT 49.582672 9.890225 37,000 136 415 0
2019-05-18 15:51:22 GMT 49.588303 9.882202 37,000 136 415 -64
2019-05-18 15:51:19 GMT 49.596661 9.870177 37,000 136 414 0
2019-05-18 15:51:15 GMT 49.596661 9.870177 37,000 136 415 0
2019-05-18 15:51:12 GMT 49.601456 9.863273 37,000 136 414 0
2019-05-18 15:51:08 GMT 49.606251 9.856369 37,000 136 415 0
2019-05-18 15:51:05 GMT 49.609791 9.851247 37,000 136 415 0
2019-05-18 15:51:02 GMT 49.615082 9.843605 37,000 136 414 0
2019-05-18 15:50:59 GMT 49.618401 9.838851 37,000 136 414 0
2019-05-18 15:50:56 GMT 49.622639 9.832689 37,000 136 414 0
2019-05-18 15:50:53 GMT 49.632507 9.818511 37,000 136 414 0
2019-05-18 15:50:50 GMT 49.632507 9.818511 37,000 136 414 0
2019-05-18 15:50:47 GMT 49.635254 9.814577 37,000 136 414 0
2019-05-18 15:50:44 GMT 49.639252 9.808839 37,000 136 414 0
2019-05-18 15:50:41 GMT 49.643555 9.802696 37,000 136 414 0
2019-05-18 15:50:38 GMT 49.649048 9.794745 37,025 136 416 128
2019-05-18 15:50:35 GMT 49.651794 9.790770 37,025 136 413 0
2019-05-18 15:50:32 GMT 49.660252 9.778574 37,000 136 414 0
2019-05-18 15:50:25 GMT 49.667221 9.768436 37,025 136 414 0
2019-05-18 15:50:21 GMT 49.671982 9.761569 37,000 136 414 0
2019-05-18 15:50:18 GMT 49.683289 9.745162 37,025 136 416 -128
2019-05-18 15:50:14 GMT 49.683289 9.745162 37,000 136 414 0
2019-05-18 15:50:11 GMT 49.691574 9.733092 37,000 136 415 -64
2019-05-18 15:50:08 GMT 49.691574 9.733092 37,000 136 415 0
2019-05-18 15:50:05 GMT 49.693863 9.729695 37,000 136 415 -64
2019-05-18 15:50:01 GMT 49.701077 9.719189 37,000 136 415 -64
2019-05-18 15:49:58 GMT 49.703705 9.715383 37,000 136 415 -128
2019-05-18 15:49:55 GMT 49.709129 9.707460 37,025 136 416 0
2019-05-18 15:49:50 GMT 49.714188 9.700060 37,025 136 415 -64
2019-05-18 15:49:47 GMT 49.718441 9.693876 37,025 136 416 128
2019-05-18 15:49:44 GMT 49.730125 9.677099 36,825 136 416 960
2019-05-18 15:49:40 GMT 49.730125 9.677099 37,000 136 418 128
2019-05-18 15:49:37 GMT 49.732178 9.674112 37,000 136 416 192
2019-05-18 15:49:34 GMT 49.738770 9.664572 36,975 136 416 128
2019-05-18 15:49:28 GMT 49.746422 9.653494 36,975 136 418 64
2019-05-18 15:49:25 GMT 49.749435 9.649176 36,975 136 417 384
2019-05-18 15:49:22 GMT 49.759453 9.634787 36,700 136 414 896
2019-05-18 15:49:19 GMT 49.759453 9.634787 36,975 137 418 256
2019-05-18 15:49:15 GMT 49.763535 9.628866 36,975 136 417 384
2019-05-18 15:49:12 GMT 49.772141 9.616362 36,825 136 416 960
2019-05-18 15:49:09 GMT 49.772141 9.616362 36,650 136 415 1024
2019-05-18 15:49:06 GMT 49.778496 9.607247 36,825 136 416 960
2019-05-18 15:49:03 GMT 49.782944 9.600750 36,775 136 416 960
2019-05-18 15:48:59 GMT 49.786503 9.595667 36,650 136 414 960
2019-05-18 15:48:56 GMT 49.790272 9.590174 36,650 136 415 1024
2019-05-18 15:48:53 GMT 49.795204 9.583122 36,650 136 415 960
2019-05-18 15:48:50 GMT 49.805077 9.568795 36,500 136 415 960
2019-05-18 15:48:47 GMT 49.805077 9.568795 36,525 136 415 960
2019-05-18 15:48:44 GMT 49.808029 9.564466 36,450 136 412 1280
2019-05-18 15:48:41 GMT 49.810867 9.560274 36,475 136 415 960
2019-05-18 15:48:38 GMT 49.817368 9.550805 36,425 136 414 960
2019-05-18 15:48:34 GMT 49.822300 9.543630 36,325 136 414 960
2019-05-18 15:48:30 GMT 49.826614 9.537289 36,225 136 414 960
2019-05-18 15:48:24 GMT 49.835472 9.524330 36,100 136 414 896
2019-05-18 15:48:21 GMT 49.839802 9.518020 36,150 136 414 896
2019-05-18 15:48:18 GMT 49.844467 9.511197 36,075 136 413 960
2019-05-18 15:48:15 GMT 49.848789 9.504807 36,025 136 413 896
2019-05-18 15:48:12 GMT 49.852001 9.500130 35,975 136 413 1024
2019-05-18 15:48:09 GMT 49.860672 9.487417 35,875 136 413 1024
2019-05-18 15:48:06 GMT 49.864197 9.482315 35,825 136 412 1152
2019-05-18 15:48:03 GMT 49.864197 9.482315 35,700 136 413 1536
2019-05-18 15:48:00 GMT 49.868774 9.475563 35,775 136 412 1280
2019-05-18 15:47:57 GMT 49.872578 9.470066 35,725 136 412 1344
2019-05-18 15:47:54 GMT 49.878162 9.461901 35,600 136 413 1472
2019-05-18 15:47:51 GMT 49.886993 9.448965 35,525 136 413 1472
2019-05-18 15:47:48 GMT 49.886993 9.448965 35,500 136 413 1536
2019-05-18 15:47:42 GMT 49.895462 9.436533 35,050 136 415 448
2019-05-18 15:47:39 GMT 49.897018 9.434292 35,200 136 415 1344
2019-05-18 15:47:36 GMT 49.902374 9.426414 35,200 136 415 128
2019-05-18 15:47:33 GMT 49.906513 9.420331 35,125 136 415 960
2019-05-18 15:47:30 GMT 49.910610 9.414318 35,075 136 415 832
2019-05-18 15:47:27 GMT 49.914963 9.407911 35,050 136 415 576
2019-05-18 15:47:23 GMT 49.920593 9.399599 35,025 136 415 256
2019-05-18 15:47:20 GMT 49.924667 9.393600 35,000 136 415 512
2019-05-18 15:47:17 GMT 49.929108 9.387022 34,925 136 415 64
2019-05-18 15:47:13 GMT 49.935379 9.377843 35,000 136 415 128
2019-05-18 15:47:10 GMT 49.942108 9.367941 34,975 136 415 192
2019-05-18 15:47:04 GMT 49.951401 9.354280 34,950 136 415 192
2019-05-18 15:46:58 GMT 49.954136 9.350182 34,950 136 415 320
2019-05-18 15:46:55 GMT 49.960049 9.341497 34,775 133 420 1600
2019-05-18 15:46:51 GMT 49.969498 9.327541 34,850 136 414 1024
2019-05-18 15:46:47 GMT 49.969498 9.327541 34,725 120 423 1152
2019-05-18 15:46:44 GMT 49.974945 9.319524 34,775 136 414 1024
2019-05-18 15:46:41 GMT 49.978546 9.314166 34,675 136 415 1024
2019-05-18 15:46:38 GMT 49.982021 9.309057 33,675 129 423 1664
2019-05-18 15:46:35 GMT 49.986256 9.302748 34,650 136 415 1024
2019-05-18 15:46:32 GMT 49.991657 9.294805 34,550 130 422 1728
2019-05-18 15:46:29 GMT 49.995708 9.288866 34,475 136 415 1024
2019-05-18 15:46:25 GMT 50.001938 9.279689 34,450 136 415 1024
2019-05-18 15:46:21 GMT 50.008072 9.270654 34,350 136 417 960
2019-05-18 15:46:18 GMT 50.010864 9.266606 33,450 135 418 1024
2019-05-18 15:46:15 GMT 50.013794 9.262197 34,275 135 418 1024
2019-05-18 15:46:12 GMT 50.020660 9.251862 34,200 134 419 1152
2019-05-18 15:46:08 GMT 50.024734 9.245429 33,350 122 423 1280
2019-05-18 15:46:05 GMT 50.028667 9.239131 33,850 132 421 1664
2019-05-18 15:46:01 GMT 50.033936 9.230539 32,600 131 421 1728
2019-05-18 15:45:58 GMT 50.037605 9.224284 33,625 120 421 1600
2019-05-18 15:45:55 GMT 50.040894 9.218686 33,825 131 422 1728
2019-05-18 15:45:52 GMT 50.049911 9.202568 33,725 130 422 1728
2019-05-18 15:45:49 GMT 50.049911 9.202568 33,625 129 423 1664
2019-05-18 15:45:46 GMT 50.053150 9.196596 33,425 127 425 1408
2019-05-18 15:45:43 GMT 50.057465 9.188401 33,325 128 424 1536
2019-05-18 15:45:40 GMT 50.060555 9.182418 32,950 120 423 1152
2019-05-18 15:45:36 GMT 50.066605 9.170244 33,300 126 425 1344
2019-05-18 15:45:33 GMT 50.069447 9.164379 33,275 126 425 1344
2019-05-18 15:45:30 GMT 50.073498 9.155843 33,150 125 424 1280
2019-05-18 15:45:24 GMT 50.080124 9.141203 33,050 123 424 1216
2019-05-18 15:45:18 GMT 50.085926 9.127931 33,000 123 423 1280
2019-05-18 15:45:15 GMT 50.088455 9.121833 32,650 120 423 1344
2019-05-18 15:45:12 GMT 50.093124 9.110268 32,775 120 423 1344
2019-05-18 15:45:08 GMT 50.099892 9.092894 32,550 120 423 1280
2019-05-18 15:45:05 GMT 50.099892 9.092894 32,650 120 423 1280
2019-05-18 15:45:02 GMT 50.102463 9.086199 32,600 120 423 1152
2019-05-18 15:44:58 GMT 50.106316 9.076117 32,550 120 423 1152
2019-05-18 15:44:54 GMT 50.110977 9.063865 32,375 120 421 1216
2019-05-18 15:44:51 GMT 50.117569 9.046518 32,250 120 421 1280
2019-05-18 15:44:47 GMT 50.117569 9.046518 31,475 120 430 2432
2019-05-18 15:44:44 GMT 50.119629 9.041080 32,250 120 421 1472
2019-05-18 15:44:41 GMT 50.123215 9.031653 32,150 120 422 1920
2019-05-18 15:44:38 GMT 50.127262 9.021037 32,050 120 421 1856
2019-05-18 15:44:35 GMT 50.129219 9.015841 31,425 120 432 2304
2019-05-18 15:44:32 GMT 50.132721 9.006621 31,625 120 424 2368
2019-05-18 15:44:29 GMT 50.134781 9.001272 31,775 120 423 2112
2019-05-18 15:44:26 GMT 50.137802 8.993177 31,475 120 424 2304
2019-05-18 15:44:23 GMT 50.140640 8.985805 31,550 120 425 2432
2019-05-18 15:44:20 GMT 50.143524 8.978143 31,525 120 428 2432
2019-05-18 15:44:16 GMT 50.148056 8.966145 31,075 120 428 2432
2019-05-18 15:44:12 GMT 50.151936 8.955936 30,775 120 431 2432
2019-05-18 15:44:09 GMT 50.155056 8.947622 30,900 120 431 2432
2019-05-18 15:44:06 GMT 50.158081 8.939605 30,775 120 432 2304
2019-05-18 15:44:03 GMT 50.162064 8.929138 30,700 120 433 2240
2019-05-18 15:44:00 GMT 50.164131 8.923645 30,600 120 433 2176
2019-05-18 15:43:57 GMT 50.167530 8.914663 30,425 120 435 1920
2019-05-18 15:43:53 GMT 50.171955 8.902934 29,350 120 441 960
2019-05-18 15:43:50 GMT 50.174927 8.895023 30,350 120 437 1280
2019-05-18 15:43:46 GMT 50.179413 8.883169 30,225 120 437 1344
2019-05-18 15:43:43 GMT 50.180984 8.879032 30,125 120 438 1088
2019-05-18 15:43:40 GMT 50.184292 8.870346 30,075 120 439 1024
2019-05-18 15:43:37 GMT 50.187408 8.862033 30,075 120 439 1024
2019-05-18 15:43:34 GMT 50.191498 8.851294 29,950 120 442 960
2019-05-18 15:43:31 GMT 50.196674 8.837536 29,925 120 441 960
2019-05-18 15:43:28 GMT 50.196674 8.837536 29,850 120 441 960
2019-05-18 15:43:25 GMT 50.200302 8.827812 29,825 120 442 960
2019-05-18 15:43:22 GMT 50.206913 8.810219 28,950 120 427 960
2019-05-18 15:43:19 GMT 50.210964 8.799529 29,700 120 442 1472
2019-05-18 15:43:15 GMT 50.210964 8.799529 29,650 120 442 1472
2019-05-18 15:43:11 GMT 50.215347 8.787761 29,600 120 442 1472
2019-05-18 15:43:08 GMT 50.218323 8.779883 29,425 120 442 1536
2019-05-18 15:43:04 GMT 50.222462 8.768871 29,250 120 442 1536
2019-05-18 15:43:01 GMT 50.224731 8.762898 29,175 120 442 1408
2019-05-18 15:42:58 GMT 50.227818 8.754693 29,250 120 442 1536
2019-05-18 15:42:54 GMT 50.232517 8.742222 29,050 120 441 512
2019-05-18 15:42:51 GMT 50.236057 8.732720 29,000 120 441 512
2019-05-18 15:42:48 GMT 50.239288 8.724156 29,050 120 441 448
2019-05-18 15:42:44 GMT 50.244995 8.708966 28,975 120 441 128
2019-05-18 15:42:41 GMT 50.244995 8.708966 28,975 120 441 128
2019-05-18 15:42:38 GMT 50.249416 8.697238 28,975 120 440 0
2019-05-18 15:42:34 GMT 50.256725 8.677640 29,000 120 437 192
2019-05-18 15:42:31 GMT 50.259750 8.669586 28,975 120 437 256
2019-05-18 15:42:27 GMT 50.259750 8.669586 28,900 120 432 832
2019-05-18 15:42:24 GMT 50.262863 8.661346 28,950 120 434 640
2019-05-18 15:42:21 GMT 50.266968 8.650323 28,900 120 432 896
2019-05-18 15:42:18 GMT 50.268951 8.645012 28,725 120 429 960
2019-05-18 15:42:15 GMT 50.271835 8.637422 28,750 120 422 1664
2019-05-18 15:42:12 GMT 50.275394 8.627905 28,750 120 429 960
2019-05-18 15:42:09 GMT 50.277859 8.621224 28,725 120 428 960
2019-05-18 15:42:06 GMT 50.280792 8.613430 28,700 120 428 960
2019-05-18 15:42:03 GMT 50.283680 8.605710 28,600 120 426 1024
2019-05-18 15:42:00 GMT 50.287777 8.594723 28,550 120 424 1024
2019-05-18 15:41:56 GMT 50.291656 8.584298 28,500 120 424 1088
2019-05-18 15:41:53 GMT 50.293736 8.578838 28,325 120 423 1472
2019-05-18 15:41:50 GMT 50.296509 8.571287 27,225 120 422 2176
2019-05-18 15:41:47 GMT 50.299896 8.562253 28,275 120 422 1728
2019-05-18 15:41:44 GMT 50.303192 8.553435 28,125 120 423 2176
2019-05-18 15:41:40 GMT 50.309376 8.536822 27,225 120 422 2176
2019-05-18 15:41:37 GMT 50.311981 8.529872 27,750 120 423 2176
2019-05-18 15:41:34 GMT 50.311981 8.529872 27,750 120 423 2176
2019-05-18 15:41:30 GMT 50.316498 8.517671 27,750 120 424 2176
2019-05-18 15:41:26 GMT 50.319946 8.508477 26,150 120 424 2176
2019-05-18 15:41:23 GMT 50.323929 8.497780 27,375 120 425 2176
2019-05-18 15:41:20 GMT 50.325851 8.492576 27,250 120 425 2176
2019-05-18 15:41:17 GMT 50.329376 8.483180 27,000 120 425 2176
2019-05-18 15:41:13 GMT 50.333675 8.471572 27,075 120 426 2240
2019-05-18 15:41:10 GMT 50.339127 8.457015 25,700 120 428 2240
2019-05-18 15:41:04 GMT 50.341541 8.450416 26,775 120 427 2240
2019-05-18 15:41:01 GMT 50.345169 8.440753 26,600 120 427 2240
2019-05-18 15:40:58 GMT 50.348053 8.432874 26,325 120 428 2240
2019-05-18 15:40:54 GMT 50.351738 8.422876 26,375 120 428 2176
2019-05-18 15:40:51 GMT 50.354828 8.414660 26,225 120 428 2112
2019-05-18 15:40:48 GMT 50.357254 8.408083 26,200 120 428 1984
2019-05-18 15:40:45 GMT 50.362061 8.395073 26,100 120 428 1792
2019-05-18 15:40:42 GMT 50.364670 8.387989 25,925 120 428 1536
2019-05-18 15:40:38 GMT 50.367287 8.380935 25,750 120 426 1472
2019-05-18 15:40:35 GMT 50.371010 8.370840 25,725 120 426 1472
2019-05-18 15:40:32 GMT 50.373524 8.364159 25,725 120 426 1472
2019-05-18 15:40:29 GMT 50.376480 8.356114 25,650 120 426 1472
2019-05-18 15:40:24 GMT 50.381577 8.342335 25,450 120 424 1472
2019-05-18 15:40:21 GMT 50.384464 8.334540 25,500 120 424 1472
2019-05-18 15:40:18 GMT 50.386917 8.327926 25,400 120 423 1472
2019-05-18 15:40:13 GMT 50.392380 8.313087 25,275 119 422 1472
2019-05-18 15:40:10 GMT 50.396347 8.302412 25,150 120 421 1536
2019-05-18 15:40:03 GMT 50.402573 8.285571 23,550 119 415 1216
2019-05-18 15:40:00 GMT 50.405926 8.276417 24,875 120 419 1792
2019-05-18 15:39:57 GMT 50.407654 8.271838 24,625 119 415 1216
2019-05-18 15:39:54 GMT 50.410629 8.263743 24,050 119 402 960
2019-05-18 15:39:51 GMT 50.413185 8.256819 24,450 119 416 1472
2019-05-18 15:39:48 GMT 50.416855 8.246902 24,325 119 416 1536
2019-05-18 15:39:43 GMT 50.421333 8.234773 24,350 119 414 1024
2019-05-18 15:39:40 GMT 50.424080 8.227275 23,850 119 398 1024
2019-05-18 15:39:36 GMT 50.432831 8.203462 24,300 119 410 960
2019-05-18 15:39:32 GMT 50.432831 8.203462 24,275 120 409 960
2019-05-18 15:39:29 GMT 50.434982 8.197608 24,225 120 407 896
2019-05-18 15:39:26 GMT 50.437592 8.190524 23,450 119 390 1728
2019-05-18 15:39:22 GMT 50.441391 8.180189 24,100 119 404 960
2019-05-18 15:39:19 GMT 50.447311 8.164104 24,050 119 400 960
2019-05-18 15:39:13 GMT 50.449219 8.158939 23,925 119 396 1024
2019-05-18 15:39:10 GMT 50.453457 8.147550 23,900 119 394 1216
2019-05-18 15:39:07 GMT 50.455597 8.141611 23,850 119 393 1280
2019-05-18 15:39:04 GMT 50.458282 8.134220 23,675 119 391 1472
2019-05-18 15:39:01 GMT 50.460114 8.129232 23,750 119 391 1472
2019-05-18 15:38:58 GMT 50.466629 8.111548 23,550 119 389 1856
2019-05-18 15:38:51 GMT 50.469234 8.104421 23,425 119 386 1856
2019-05-18 15:38:48 GMT 50.471889 8.097221 23,250 119 388 2176
2019-05-18 15:38:44 GMT 50.475613 8.086977 23,225 119 388 2240
2019-05-18 15:38:41 GMT 50.478733 8.078440 23,100 119 388 2240
2019-05-18 15:38:37 GMT 50.485435 8.060179 22,900 119 381 1984
2019-05-18 15:38:34 GMT 50.487762 8.053846 22,750 119 386 1856
2019-05-18 15:38:30 GMT 50.487762 8.053846 22,700 119 385 1920
2019-05-18 15:38:27 GMT 50.490784 8.045606 22,500 119 385 2048
2019-05-18 15:38:24 GMT 50.496796 8.029150 22,450 119 384 2304
2019-05-18 15:38:20 GMT 50.496796 8.029150 22,375 119 384 2304
2019-05-18 15:38:17 GMT 50.499588 8.021504 22,225 119 383 2432
2019-05-18 15:38:13 GMT 50.504013 8.009322 21,950 119 383 2432
2019-05-18 15:38:10 GMT 50.506290 8.003095 21,950 119 383 2496
2019-05-18 15:38:06 GMT 50.509369 7.994578 21,825 119 383 2432
2019-05-18 15:38:03 GMT 50.512024 7.987277 21,575 119 383 2240
2019-05-18 15:37:59 GMT 50.515823 7.976869 21,500 119 383 2240
2019-05-18 15:37:55 GMT 50.523651 7.955547 21,025 119 381 2048
2019-05-18 15:37:50 GMT 50.523651 7.955547 21,150 119 380 1728
2019-05-18 15:37:47 GMT 50.528076 7.943412 21,025 119 381 1920
2019-05-18 15:37:44 GMT 50.529465 7.939646 21,000 119 379 1536
2019-05-18 15:37:41 GMT 50.531990 7.932797 20,850 119 377 1792
2019-05-18 15:37:38 GMT 50.538414 7.915204 20,825 119 374 2368
2019-05-18 15:37:34 GMT 50.540497 7.909433 19,975 119 373 2880
2019-05-18 15:37:28 GMT 50.542648 7.903579 20,475 119 373 2560
2019-05-18 15:37:23 GMT 50.547955 7.888926 20,200 119 373 2752
2019-05-18 15:37:17 GMT 50.551960 7.877865 19,975 119 367 1792
2019-05-18 15:37:14 GMT 50.555511 7.868090 19,600 119 373 2880
2019-05-18 15:37:11 GMT 50.556614 7.865023 19,500 119 372 2816
2019-05-18 15:37:08 GMT 50.559998 7.855731 17,925 119 352 2048
2019-05-18 15:37:02 GMT 50.564854 7.842382 19,250 119 372 2496
2019-05-18 15:36:59 GMT 50.567322 7.835493 19,200 119 371 2240
2019-05-18 15:36:56 GMT 50.569427 7.829783 19,075 119 371 2240
2019-05-18 15:36:52 GMT 50.574444 7.815882 18,875 122 343 896
2019-05-18 15:36:46 GMT 50.578400 7.804970 18,650 119 366 1792
2019-05-18 15:36:43 GMT 50.580963 7.797980 18,450 119 359 2304
2019-05-18 15:36:39 GMT 50.583801 7.790123 18,525 119 362 1920
2019-05-18 15:36:36 GMT 50.586914 7.781645 18,450 119 360 2176
2019-05-18 15:36:33 GMT 50.590225 7.772530 18,175 119 356 2496
2019-05-18 15:36:30 GMT 50.592224 7.766973 17,750 119 356 2496
2019-05-18 15:36:27 GMT 50.595108 7.759094 17,925 119 352 2048
2019-05-18 15:36:24 GMT 50.597206 7.753378 17,925 119 352 2048
2019-05-18 15:36:19 GMT 50.600422 7.744471 16,900 119 355 2688
2019-05-18 15:36:16 GMT 50.603531 7.735893 17,550 119 348 1472
2019-05-18 15:36:12 GMT 50.607193 7.725774 17,400 119 348 1472
2019-05-18 15:36:08 GMT 50.609802 7.718401 16,875 131 299 3776
2019-05-18 15:36:04 GMT 50.613693 7.707704 17,025 131 298 3904
2019-05-18 15:36:01 GMT 50.615753 7.701994 17,125 120 344 1088
2019-05-18 15:35:57 GMT 50.618225 7.695345 17,050 122 343 896
2019-05-18 15:35:53 GMT 50.622440 7.685011 17,000 124 340 768
2019-05-18 15:35:50 GMT 50.624489 7.680408 16,925 126 336 768
2019-05-18 15:35:45 GMT 50.630310 7.668529 16,800 130 328 896
2019-05-18 15:35:40 GMT 50.634499 7.660737 16,750 130 323 960
2019-05-18 15:35:35 GMT 50.642303 7.646412 16,625 130 316 960
2019-05-18 15:35:32 GMT 50.642303 7.646412 16,625 130 315 960
2019-05-18 15:35:29 GMT 50.644737 7.641956 16,525 130 311 1088
2019-05-18 15:35:26 GMT 50.647484 7.636908 16,525 130 311 1088
2019-05-18 15:35:23 GMT 50.651093 7.630294 16,400 130 302 1600
2019-05-18 15:35:20 GMT 50.653610 7.625668 16,350 130 300 1792
2019-05-18 15:35:14 GMT 50.658051 7.617460 16,100 130 293 2624
2019-05-18 15:35:11 GMT 50.661255 7.611574 16,100 130 295 2432
2019-05-18 15:35:08 GMT 50.663635 7.607237 15,800 130 293 2624
2019-05-18 15:35:02 GMT 50.668900 7.597566 15,750 130 292 3648
2019-05-18 15:34:59 GMT 50.672791 7.590439 15,475 131 295 3968
2019-05-18 15:34:55 GMT 50.674671 7.587051 15,025 131 296 3904
2019-05-18 15:34:52 GMT 50.679016 7.579156 14,975 131 295 3968
2019-05-18 15:34:48 GMT 50.682121 7.573624 14,850 131 298 3904
2019-05-18 15:34:44 GMT 50.684830 7.568764 14,575 131 297 4032
2019-05-18 15:34:41 GMT 50.687984 7.563095 14,200 131 298 2880
2019-05-18 15:34:37 GMT 50.695339 7.549896 13,975 131 298 2816
2019-05-18 15:34:33 GMT 50.695339 7.549896 13,625 131 297 3136
2019-05-18 15:34:30 GMT 50.698273 7.544632 13,800 131 296 3264
2019-05-18 15:34:23 GMT 50.704697 7.533206 13,350 131 296 3584
2019-05-18 15:34:20 GMT 50.707260 7.528678 13,225 131 296 3904
2019-05-18 15:34:17 GMT 50.710098 7.523575 13,100 131 304 4480
2019-05-18 15:34:14 GMT 50.713257 7.517840 12,825 131 298 4224
2019-05-18 15:34:11 GMT 50.717686 7.509842 12,325 130 301 4608
2019-05-18 15:34:02 GMT 50.725784 7.495193 11,575 131 306 3712
2019-05-18 15:33:56 GMT 50.728859 7.489777 11,450 131 305 2944
2019-05-18 15:33:53 GMT 50.732712 7.482877 11,000 131 297 1472
2019-05-18 15:33:46 GMT 50.739258 7.471297 11,000 131 301 2112
2019-05-18 15:33:42 GMT 50.741894 7.466583 10,850 131 290 1472
2019-05-18 15:33:39 GMT 50.744247 7.462389 10,525 131 274 3520
2019-05-18 15:33:36 GMT 50.748318 7.455139 10,725 131 286 1600
2019-05-18 15:33:32 GMT 50.751671 7.449188 10,675 131 286 1600
2019-05-18 15:33:29 GMT 50.754509 7.444153 10,525 131 274 3520
2019-05-18 15:33:25 GMT 50.756927 7.439804 10,250 131 274 3520
2019-05-18 15:33:21 GMT 50.760422 7.433548 10,200 131 274 3520
2019-05-18 15:33:18 GMT 50.766052 7.423248 8,100 131 266 4224
2019-05-18 15:33:15 GMT 50.769196 7.417627 9,725 131 271 3264
2019-05-18 15:33:11 GMT 50.769196 7.417627 9,625 131 271 3264
2019-05-18 15:33:08 GMT 50.771687 7.413177 9,450 131 270 3328
2019-05-18 15:33:04 GMT 50.775410 7.406540 9,175 131 267 3648
2019-05-18 15:33:01 GMT 50.779221 7.399737 9,000 131 267 3648
2019-05-18 15:32:54 GMT 50.782516 7.393873 8,425 131 266 3904
2019-05-18 15:32:50 GMT 50.786545 7.386747 8,350 131 267 3968
2019-05-18 15:32:44 GMT 50.790726 7.379227 7,900 131 266 4224
2019-05-18 15:32:39 GMT 50.795380 7.370787 7,475 120 266 4352
2019-05-18 15:32:34 GMT 50.798824 7.363892 7,275 122 265 4352
2019-05-18 15:32:28 GMT 50.802505 7.354736 6,775 111 265 4160
2019-05-18 15:32:24 GMT 50.804691 7.346649 6,375 102 264 4160
2019-05-18 15:32:21 GMT 50.806641 7.331964 6,375 98 263 4160
2019-05-18 15:32:17 GMT 50.806641 7.331964 6,175 97 263 3968
2019-05-18 15:32:09 GMT 50.807877 7.317934 5,650 97 262 3584
2019-05-18 15:32:05 GMT 50.808609 7.309397 5,425 97 260 3136
2019-05-18 15:31:58 GMT 50.809486 7.298355 5,125 97 254 2496
2019-05-18 15:31:54 GMT 50.810093 7.290955 4,950 97 247 2496
2019-05-18 15:31:46 GMT 50.811447 7.275473 15,750 99 220 3072
2019-05-18 15:31:43 GMT 50.811768 7.271910 15,750 99 220 3072
2019-05-18 15:31:40 GMT 50.813370 7.253723 15,750 98 231 2240
2019-05-18 15:31:33 GMT 50.813370 7.253723 3,600 104 219 2432
2019-05-18 15:31:25 GMT 50.814701 7.240219 3,650 101 219 2816
2019-05-18 15:31:22 GMT 50.815155 7.236130 2,950 111 216 1600
2019-05-18 15:31:16 GMT 50.816750 7.227936 3,325 116 211 1280
2019-05-18 15:31:13 GMT 50.817818 7.224121 3,250 119 209 1280
2019-05-18 15:31:05 GMT 50.821930 7.213564 3,025 128 201 1408
2019-05-18 15:31:01 GMT 50.825089 7.207699 2,850 137 189 1472
2019-05-18 15:30:52 GMT 50.835068 7.193224 2,475 138 182 1664
2019-05-18 15:30:44 GMT 50.836945 7.190626 2,375 138 175 1600
2019-05-18 15:30:38 GMT 50.838768 7.188034 2,300 138 167 1664
2019-05-18 15:30:32 GMT 50.842770 7.182465 2,100 138 164 1728
2019-05-18 15:30:27 GMT 50.845322 7.178897 2,000 139 160 1664
2019-05-18 15:30:19 GMT 50.849663 7.173004 1,775 138 153 1856
2019-05-18 15:30:16 GMT 50.851501 7.170509 1,675 138 151 2432
2019-05-18 15:30:11 GMT 50.854549 7.166290 1,450 138 152 2432
2019-05-18 15:30:06 GMT 50.857342 7.162323 1,200 138 152 2496

Making use of Plane Finder data

You are free to use the raw flight data, aircraft information and images provided in this report for your own purposes provided the data is correctly attributed to Plane Finder. We ask that you please credit Plane Finder and link to planefinder.net in close proximity to the content.

Optionally one of the following logos (no smaller then 150x24px) can be used and must link to planefinder.net

Embedding the Plane Finder map

You are welcome to embed the Plane Finder playback map on your website to offer visitors a more interactive experience. We suggest using the following HTML code:

<iframe src="//planefinder.net/data/report/EW658-D-AGWZ-7700-squawk-2019-05-18/map" width="800" height="600" seamless="seamless"></iframe>

Where our data comes from

Plane Finder has a global network of data feeds and antenna radars that receive data broadcast directly from aircraft. The primary technologies used are ADS-B and MLAT. We also show feeds from the FAA and a FLARM glider feed.

Click here to find out more about the Plane Finder network.

How we collect our data